SAA204 KJFK-FAOR
Flight info
| Callsign | SAA204 |
|---|---|
| Flight time | N/A |
| Altitude | 29000 |
| Route | WAVEY DCT OWENZ Y481 POPPN DCT ISLES DCT KAYYT/M078F290 DCT 37N060W 33N050W 26N040W 23N035W DCT TEGTO/N0473F290 DCT EVKAS DCT MOGSA UA602 TURED UG853 DEMAR UR991 ARLEM DCT 03S005W 10S000E 15S005E DCT NEVEP UM431 VEDRY UP301 TETUS UN181 PEDIL UQ19 AVAGO AVAGO1D |
| Aircraft | A346/H-SDE2E3FGHIJ3J4J5M1RWXY/LB1D1 |
Departure
| Time | 2026-05-08 02:05 |
|---|---|
| Airport | John F. Kennedy International Airport (KJFK) |
Arrival
| Time | N/A |
|---|---|
| Airport | O.R. Tambo International Airport (FAOR) |
| Time | Latitude | Longitude | Altitude | Speed | Heading |
|---|---|---|---|---|---|
| 2026-05-08 01:28 | 40.64521 | -73.77188 | 24 ft | 0 kts | 1° |
| 2026-05-08 01:30 | 40.64542 | -73.77188 | 28 ft | 0 kts | 1° |
| 2026-05-08 01:31 | 40.64543 | -73.77188 | 28 ft | 0 kts | 1° |
| 2026-05-08 01:33 | 40.64521 | -73.77189 | 24 ft | 0 kts | 1° |
| 2026-05-08 01:51 | 40.64516 | -73.77189 | 29 ft | 3 kts | 1° |
| 2026-05-08 01:51 | 40.64494 | -73.77189 | 27 ft | 4 kts | 7° |
| 2026-05-08 01:52 | 40.64479 | -73.77196 | 29 ft | 4 kts | 48° |
| 2026-05-08 01:52 | 40.64473 | -73.77216 | 29 ft | 4 kts | 86° |
| 2026-05-08 01:52 | 40.64473 | -73.77244 | 29 ft | 4 kts | 90° |
| 2026-05-08 01:52 | 40.64473 | -73.77276 | 24 ft | 1 kts | 90° |
| 2026-05-08 01:53 | 40.64473 | -73.77277 | 24 ft | 0 kts | 90° |
| 2026-05-08 01:56 | 40.64473 | -73.77276 | 24 ft | 0 kts | 90° |
| 2026-05-08 01:57 | 40.64473 | -73.77269 | 24 ft | 1 kts | 95° |
| 2026-05-08 01:57 | 40.64470 | -73.77252 | 27 ft | 3 kts | 103° |
| 2026-05-08 01:57 | 40.64465 | -73.77223 | 25 ft | 4 kts | 105° |
| 2026-05-08 01:57 | 40.64456 | -73.77180 | 29 ft | 6 kts | 105° |
| 2026-05-08 01:58 | 40.64442 | -73.77124 | 27 ft | 7 kts | 109° |
| 2026-05-08 01:58 | 40.64430 | -73.77060 | 28 ft | 7 kts | 83° |
| 2026-05-08 01:58 | 40.64462 | -73.77010 | 24 ft | 8 kts | 26° |
| 2026-05-08 01:58 | 40.64516 | -73.76980 | 28 ft | 9 kts | 26° |
| 2026-05-08 01:59 | 40.64572 | -73.76941 | 26 ft | 10 kts | 31° |
| 2026-05-08 01:59 | 40.64623 | -73.76901 | 29 ft | 7 kts | 31° |
| 2026-05-08 01:59 | 40.64657 | -73.76874 | 30 ft | 0 kts | 31° |
| 2026-05-08 02:00 | 40.64659 | -73.76872 | 30 ft | 1 kts | 31° |
| 2026-05-08 02:00 | 40.64672 | -73.76862 | 28 ft | 3 kts | 31° |
| 2026-05-08 02:00 | 40.64696 | -73.76843 | 31 ft | 5 kts | 31° |
| 2026-05-08 02:00 | 40.64731 | -73.76814 | 32 ft | 6 kts | 31° |
| 2026-05-08 02:01 | 40.64767 | -73.76786 | 27 ft | 5 kts | 31° |
| 2026-05-08 02:01 | 40.64801 | -73.76760 | 27 ft | 7 kts | 30° |
| 2026-05-08 02:01 | 40.64848 | -73.76723 | 27 ft | 10 kts | 30° |
| 2026-05-08 02:01 | 40.64917 | -73.76670 | 26 ft | 12 kts | 30° |
| 2026-05-08 02:02 | 40.64993 | -73.76611 | 27 ft | 13 kts | 31° |
| 2026-05-08 02:02 | 40.65072 | -73.76548 | 25 ft | 13 kts | 36° |
| 2026-05-08 02:02 | 40.65087 | -73.76448 | 28 ft | 12 kts | 108° |
| 2026-05-08 02:02 | 40.65041 | -73.76365 | 26 ft | 11 kts | 171° |
| 2026-05-08 02:03 | 40.64972 | -73.76397 | 26 ft | 11 kts | 207° |
| 2026-05-08 02:03 | 40.64908 | -73.76444 | 26 ft | 12 kts | 213° |
| 2026-05-08 02:03 | 40.64837 | -73.76502 | 28 ft | 12 kts | 210° |
| 2026-05-08 02:03 | 40.64752 | -73.76567 | 31 ft | 25 kts | 210° |
| 2026-05-08 02:04 | 40.64451 | -73.76800 | 26 ft | 83 kts | 211° |
| 2026-05-08 02:04 | 40.63783 | -73.77319 | 27 ft | 137 kts | 211° |
| 2026-05-08 02:04 | 40.62824 | -73.78065 | 30 ft | 181 kts | 210° |
| 2026-05-08 02:04 | 40.61853 | -73.78824 | 319 ft | 188 kts | 210° |
| 2026-05-08 02:05 | 40.60727 | -73.79706 | 864 ft | 190 kts | 210° |
| 2026-05-08 02:05 | 40.59567 | -73.80609 | 1401 ft | 195 kts | 211° |
| 2026-05-08 02:05 | 40.58274 | -73.81141 | 1861 ft | 200 kts | 174° |
| 2026-05-08 02:05 | 40.56964 | -73.80508 | 2093 ft | 206 kts | 148° |
| 2026-05-08 02:06 | 40.55726 | -73.79458 | 2335 ft | 216 kts | 144° |
| 2026-05-08 02:06 | 40.54870 | -73.78673 | 2570 ft | 219 kts | 143° |
| 2026-05-08 02:06 | 40.53219 | -73.77134 | 3124 ft | 220 kts | 143° |
| 2026-05-08 02:06 | 40.52440 | -73.76401 | 3385 ft | 220 kts | 143° |
| 2026-05-08 02:07 | 40.51121 | -73.75149 | 3727 ft | 229 kts | 143° |
| 2026-05-08 02:07 | 40.49793 | -73.73873 | 3973 ft | 243 kts | 143° |
| 2026-05-08 02:07 | 40.48397 | -73.72519 | 4255 ft | 257 kts | 143° |
| 2026-05-08 02:07 | 40.46897 | -73.71052 | 4546 ft | 271 kts | 143° |
| 2026-05-08 02:08 | 40.45357 | -73.69532 | 4844 ft | 285 kts | 143° |
| 2026-05-08 02:08 | 40.43755 | -73.67938 | 4992 ft | 290 kts | 143° |
| 2026-05-08 02:08 | 40.42136 | -73.66322 | 4995 ft | 290 kts | 143° |
| 2026-05-08 02:08 | 40.40525 | -73.64715 | 4999 ft | 291 kts | 143° |
| 2026-05-08 02:09 | 40.38893 | -73.63086 | 5003 ft | 291 kts | 143° |
| 2026-05-08 02:09 | 40.37303 | -73.61501 | 5003 ft | 291 kts | 143° |
| 2026-05-08 02:09 | 40.35685 | -73.59890 | 4999 ft | 292 kts | 143° |
| 2026-05-08 02:09 | 40.34083 | -73.58263 | 5002 ft | 292 kts | 142° |
| 2026-05-08 02:10 | 40.32475 | -73.56609 | 5001 ft | 292 kts | 140° |
| 2026-05-08 02:10 | 40.31071 | -73.54673 | 5002 ft | 292 kts | 129° |
| 2026-05-08 02:10 | 40.29819 | -73.52573 | 5000 ft | 292 kts | 127° |
| 2026-05-08 02:10 | 40.28621 | -73.50424 | 4993 ft | 292 kts | 120° |
| 2026-05-08 02:11 | 40.27774 | -73.48001 | 5006 ft | 292 kts | 109° |
| 2026-05-08 02:11 | 40.27092 | -73.45491 | 5001 ft | 291 kts | 109° |
| 2026-05-08 02:11 | 40.26165 | -73.43121 | 5037 ft | 297 kts | 126° |
| 2026-05-08 02:11 | 40.24799 | -73.41078 | 5561 ft | 298 kts | 136° |
| 2026-05-08 02:12 | 40.23299 | -73.39205 | 6279 ft | 297 kts | 136° |
| 2026-05-08 02:12 | 40.21830 | -73.37224 | 6828 ft | 301 kts | 134° |
| 2026-05-08 02:12 | 40.20380 | -73.35211 | 7304 ft | 306 kts | 135° |
| 2026-05-08 02:12 | 40.18913 | -73.33170 | 7832 ft | 310 kts | 135° |
| 2026-05-08 02:13 | 40.17422 | -73.31103 | 8335 ft | 314 kts | 136° |
| 2026-05-08 02:13 | 40.15908 | -73.29008 | 8836 ft | 319 kts | 136° |
| 2026-05-08 02:13 | 40.14373 | -73.26887 | 9319 ft | 323 kts | 137° |
| 2026-05-08 02:13 | 40.12814 | -73.24736 | 9819 ft | 327 kts | 138° |
| 2026-05-08 02:14 | 40.11235 | -73.22561 | 10263 ft | 332 kts | 139° |
| 2026-05-08 02:14 | 40.09614 | -73.20336 | 10503 ft | 344 kts | 139° |
| 2026-05-08 02:14 | 40.07933 | -73.18035 | 10726 ft | 356 kts | 139° |
| 2026-05-08 02:14 | 40.06189 | -73.15647 | 10959 ft | 368 kts | 139° |
| 2026-05-08 02:15 | 40.04393 | -73.13187 | 11180 ft | 381 kts | 139° |
| 2026-05-08 02:15 | 40.02534 | -73.10641 | 11393 ft | 393 kts | 140° |
| 2026-05-08 02:15 | 40.00620 | -73.08021 | 11637 ft | 403 kts | 140° |
| 2026-05-08 02:15 | 39.98675 | -73.05352 | 12080 ft | 408 kts | 140° |
| 2026-05-08 02:16 | 39.96712 | -73.02658 | 12621 ft | 410 kts | 140° |
| 2026-05-08 02:16 | 39.94736 | -72.99949 | 13146 ft | 413 kts | 141° |
| 2026-05-08 02:16 | 39.92749 | -72.97232 | 13646 ft | 416 kts | 141° |
| 2026-05-08 02:16 | 39.90739 | -72.94493 | 14079 ft | 419 kts | 141° |
| 2026-05-08 02:17 | 39.88747 | -72.91782 | 14550 ft | 421 kts | 141° |
| 2026-05-08 02:17 | 39.86687 | -72.88981 | 15032 ft | 423 kts | 141° |
| 2026-05-08 02:17 | 39.84639 | -72.86187 | 15502 ft | 426 kts | 140° |
| 2026-05-08 02:17 | 39.82793 | -72.83110 | 15925 ft | 438 kts | 130° |
| 2026-05-08 02:18 | 39.81331 | -72.79582 | 16369 ft | 448 kts | 119° |
| 2026-05-08 02:18 | 39.80235 | -72.75806 | 16853 ft | 452 kts | 115° |
| 2026-05-08 02:18 | 39.79220 | -72.71925 | 17337 ft | 454 kts | 114° |
| 2026-05-08 02:18 | 39.78195 | -72.67967 | 17806 ft | 456 kts | 114° |
| 2026-05-08 02:19 | 39.77174 | -72.64092 | 18241 ft | 457 kts | 115° |
| 2026-05-08 02:19 | 39.76111 | -72.60119 | 18620 ft | 460 kts | 115° |
| 2026-05-08 02:19 | 39.75045 | -72.56182 | 18965 ft | 463 kts | 115° |
| 2026-05-08 02:19 | 39.73967 | -72.52231 | 19293 ft | 466 kts | 115° |
| 2026-05-08 02:20 | 39.72891 | -72.48296 | 19621 ft | 469 kts | 115° |
| 2026-05-08 02:20 | 39.71794 | -72.44291 | 19961 ft | 472 kts | 115° |
| 2026-05-08 02:20 | 39.70689 | -72.40260 | 20288 ft | 475 kts | 115° |
| 2026-05-08 02:20 | 39.69575 | -72.36202 | 20619 ft | 478 kts | 115° |
| 2026-05-08 02:21 | 39.68453 | -72.32121 | 20944 ft | 481 kts | 115° |
| 2026-05-08 02:21 | 39.67325 | -72.28022 | 21260 ft | 484 kts | 115° |
| 2026-05-08 02:21 | 39.66186 | -72.23895 | 21571 ft | 487 kts | 115° |
| 2026-05-08 02:21 | 39.65038 | -72.19743 | 21896 ft | 490 kts | 115° |
| 2026-05-08 02:22 | 39.63928 | -72.15534 | 22211 ft | 494 kts | 114° |
| 2026-05-08 02:22 | 39.62870 | -72.11281 | 22521 ft | 497 kts | 113° |
| 2026-05-08 02:22 | 39.61816 | -72.06983 | 22837 ft | 500 kts | 113° |
| 2026-05-08 02:22 | 39.60756 | -72.02674 | 23135 ft | 502 kts | 113° |
| 2026-05-08 02:23 | 39.59683 | -71.98344 | 23435 ft | 505 kts | 113° |
| 2026-05-08 02:23 | 39.58601 | -71.94001 | 23685 ft | 508 kts | 113° |
| 2026-05-08 02:23 | 39.57505 | -71.89627 | 23939 ft | 510 kts | 114° |
| 2026-05-08 02:23 | 39.56398 | -71.85220 | 24190 ft | 512 kts | 114° |
| 2026-05-08 02:24 | 39.55287 | -71.80809 | 24424 ft | 515 kts | 114° |
| 2026-05-08 02:24 | 39.54173 | -71.76394 | 24687 ft | 517 kts | 114° |
| 2026-05-08 02:24 | 39.53048 | -71.71949 | 24936 ft | 519 kts | 114° |
| 2026-05-08 02:24 | 39.51918 | -71.67488 | 25169 ft | 521 kts | 114° |
| 2026-05-08 02:25 | 39.50783 | -71.63016 | 25403 ft | 524 kts | 114° |
| 2026-05-08 02:25 | 39.49640 | -71.58519 | 25643 ft | 526 kts | 114° |
| 2026-05-08 02:25 | 39.48490 | -71.54006 | 25881 ft | 528 kts | 114° |
| 2026-05-08 02:25 | 39.47335 | -71.49480 | 26114 ft | 530 kts | 114° |
| 2026-05-08 02:26 | 39.46173 | -71.44939 | 26346 ft | 532 kts | 114° |
| 2026-05-08 02:26 | 39.45003 | -71.40374 | 26568 ft | 534 kts | 114° |
| 2026-05-08 02:26 | 39.43839 | -71.35791 | 26790 ft | 537 kts | 112° |
| 2026-05-08 02:26 | 39.42813 | -71.31124 | 27002 ft | 542 kts | 109° |
| 2026-05-08 02:27 | 39.41988 | -71.26342 | 27223 ft | 546 kts | 105° |
| 2026-05-08 02:27 | 39.41327 | -71.21483 | 27491 ft | 547 kts | 104° |
| 2026-05-08 02:27 | 39.40704 | -71.16630 | 27858 ft | 546 kts | 103° |
| 2026-05-08 02:27 | 39.40086 | -71.11780 | 28211 ft | 545 kts | 103° |
| 2026-05-08 02:28 | 39.39473 | -71.07010 | 28505 ft | 545 kts | 103° |
| 2026-05-08 02:28 | 39.38842 | -71.02165 | 28747 ft | 546 kts | 104° |
| 2026-05-08 02:28 | 39.38196 | -70.97254 | 28969 ft | 547 kts | 104° |
| 2026-05-08 02:28 | 39.37559 | -70.92456 | 29202 ft | 548 kts | 104° |
| 2026-05-08 02:29 | 39.36909 | -70.87589 | 29442 ft | 549 kts | 104° |
| 2026-05-08 02:29 | 39.36257 | -70.82716 | 29685 ft | 550 kts | 104° |
| 2026-05-08 02:29 | 39.35602 | -70.77845 | 29916 ft | 550 kts | 104° |
| 2026-05-08 02:29 | 39.34942 | -70.72954 | 30068 ft | 552 kts | 104° |
| 2026-05-08 02:30 | 39.33614 | -70.63147 | 30071 ft | 552 kts | 104° |
| 2026-05-08 02:30 | 39.32281 | -70.53376 | 30073 ft | 551 kts | 104° |
| 2026-05-08 02:31 | 39.30938 | -70.43594 | 30081 ft | 551 kts | 105° |
| 2026-05-08 02:31 | 39.29591 | -70.33849 | 30075 ft | 551 kts | 105° |
| 2026-05-08 02:32 | 39.28235 | -70.24101 | 30070 ft | 551 kts | 105° |
| 2026-05-08 02:32 | 39.26869 | -70.14351 | 30065 ft | 551 kts | 105° |
| 2026-05-08 02:33 | 39.25496 | -70.04612 | 30071 ft | 551 kts | 105° |
| 2026-05-08 02:33 | 39.24112 | -69.94855 | 30061 ft | 552 kts | 106° |
| 2026-05-08 02:34 | 39.22722 | -69.85112 | 30060 ft | 552 kts | 106° |
| 2026-05-08 02:34 | 39.21322 | -69.75364 | 30062 ft | 552 kts | 106° |
| 2026-05-08 02:35 | 39.19912 | -69.65609 | 30056 ft | 552 kts | 107° |
| 2026-05-08 02:35 | 39.18494 | -69.55856 | 30053 ft | 552 kts | 107° |
| 2026-05-08 02:36 | 39.17069 | -69.46112 | 30062 ft | 552 kts | 107° |
| 2026-05-08 02:36 | 39.15636 | -69.36380 | 30059 ft | 552 kts | 107° |
| 2026-05-08 02:37 | 39.14195 | -69.26648 | 30053 ft | 552 kts | 107° |
| 2026-05-08 02:37 | 39.12746 | -69.16917 | 30051 ft | 551 kts | 108° |
| 2026-05-08 02:38 | 39.11302 | -69.07281 | 30049 ft | 550 kts | 108° |
| 2026-05-08 02:38 | 39.09835 | -68.97549 | 30050 ft | 549 kts | 108° |
| 2026-05-08 02:39 | 39.08368 | -68.87878 | 30043 ft | 548 kts | 108° |
| 2026-05-08 02:39 | 39.06896 | -68.78236 | 30039 ft | 548 kts | 108° |
| 2026-05-08 02:40 | 39.05420 | -68.68616 | 30038 ft | 547 kts | 108° |
| 2026-05-08 02:40 | 39.03946 | -68.59069 | 30035 ft | 547 kts | 108° |
| 2026-05-08 02:41 | 39.02456 | -68.49463 | 30031 ft | 546 kts | 108° |
| 2026-05-08 02:41 | 39.00959 | -68.39877 | 30032 ft | 545 kts | 108° |
| 2026-05-08 02:42 | 38.99461 | -68.30328 | 30039 ft | 544 kts | 108° |
| 2026-05-08 02:42 | 38.97952 | -68.20771 | 30032 ft | 544 kts | 108° |
| 2026-05-08 02:43 | 38.96442 | -68.11253 | 30027 ft | 542 kts | 108° |
| 2026-05-08 02:43 | 38.94928 | -68.01760 | 30027 ft | 540 kts | 108° |
| 2026-05-08 02:44 | 38.93411 | -67.92304 | 30024 ft | 538 kts | 108° |
| 2026-05-08 02:44 | 38.91892 | -67.82892 | 30024 ft | 536 kts | 108° |
| 2026-05-08 02:45 | 38.90370 | -67.73516 | 30022 ft | 536 kts | 108° |
| 2026-05-08 02:45 | 38.88838 | -67.64132 | 30015 ft | 536 kts | 108° |
| 2026-05-08 02:46 | 38.87208 | -67.54807 | 30011 ft | 533 kts | 111° |
| 2026-05-08 02:46 | 38.85281 | -67.45606 | 30009 ft | 533 kts | 112° |
| 2026-05-08 02:47 | 38.83324 | -67.36414 | 30007 ft | 533 kts | 112° |
| 2026-05-08 02:47 | 38.81367 | -67.27233 | 30007 ft | 534 kts | 112° |
| 2026-05-08 02:48 | 38.79403 | -67.18032 | 30001 ft | 534 kts | 112° |
| 2026-05-08 02:48 | 38.77434 | -67.08844 | 30002 ft | 534 kts | 112° |
| 2026-05-08 02:49 | 38.75456 | -66.99650 | 30007 ft | 534 kts | 112° |
| 2026-05-08 02:49 | 38.73487 | -66.90540 | 30002 ft | 534 kts | 112° |
| 2026-05-08 02:50 | 38.71496 | -66.81365 | 29997 ft | 533 kts | 112° |
| 2026-05-08 02:50 | 38.69504 | -66.72219 | 29995 ft | 533 kts | 112° |
| 2026-05-08 02:51 | 38.67501 | -66.63059 | 29990 ft | 533 kts | 112° |
| 2026-05-08 02:51 | 38.65494 | -66.53916 | 29986 ft | 533 kts | 112° |
| 2026-05-08 02:52 | 38.63477 | -66.44768 | 29982 ft | 534 kts | 112° |
| 2026-05-08 02:52 | 38.61452 | -66.35622 | 29981 ft | 534 kts | 112° |
| 2026-05-08 02:53 | 38.59762 | -66.28023 | 29978 ft | 533 kts | 112° |
| 2026-05-08 02:53 | 38.57713 | -66.18840 | 29975 ft | 532 kts | 112° |
| 2026-05-08 02:54 | 38.55689 | -66.09804 | 29976 ft | 531 kts | 112° |
| 2026-05-08 02:54 | 38.53647 | -66.00726 | 29974 ft | 531 kts | 111° |
| 2026-05-08 02:55 | 38.50569 | -65.87115 | 29974 ft | 531 kts | 111° |
| 2026-05-08 02:56 | 38.48511 | -65.78056 | 29977 ft | 531 kts | 111° |
| 2026-05-08 02:56 | 38.46444 | -65.68993 | 29981 ft | 531 kts | 111° |
| 2026-05-08 02:57 | 38.44371 | -65.59941 | 29982 ft | 531 kts | 111° |
| 2026-05-08 02:57 | 38.42289 | -65.50883 | 29989 ft | 531 kts | 111° |
| 2026-05-08 02:58 | 38.40203 | -65.41842 | 29988 ft | 531 kts | 111° |
| 2026-05-08 02:58 | 38.38108 | -65.32801 | 29994 ft | 531 kts | 110° |
| 2026-05-08 02:59 | 38.36006 | -65.23752 | 30002 ft | 532 kts | 110° |
| 2026-05-08 02:59 | 38.33897 | -65.14712 | 30011 ft | 532 kts | 111° |
| 2026-05-08 03:00 | 38.31774 | -65.05655 | 30013 ft | 533 kts | 111° |
| 2026-05-08 03:00 | 38.29640 | -64.96582 | 30016 ft | 534 kts | 111° |
| 2026-05-08 03:01 | 38.27494 | -64.87501 | 30018 ft | 537 kts | 111° |
| 2026-05-08 03:01 | 38.25325 | -64.78360 | 30023 ft | 540 kts | 111° |
| 2026-05-08 03:02 | 38.23138 | -64.69171 | 30025 ft | 544 kts | 111° |
| 2026-05-08 03:02 | 38.20927 | -64.59921 | 30024 ft | 547 kts | 111° |
| 2026-05-08 03:03 | 38.18705 | -64.50661 | 30032 ft | 547 kts | 110° |
| 2026-05-08 03:03 | 38.16493 | -64.41473 | 30037 ft | 546 kts | 110° |
| 2026-05-08 03:04 | 38.14259 | -64.32232 | 30044 ft | 546 kts | 110° |
| 2026-05-08 03:04 | 38.12020 | -64.23002 | 30042 ft | 546 kts | 110° |
| 2026-05-08 03:05 | 38.09775 | -64.13785 | 30047 ft | 545 kts | 110° |
| 2026-05-08 03:05 | 38.07529 | -64.04597 | 30058 ft | 544 kts | 110° |
| 2026-05-08 03:06 | 38.05277 | -63.95424 | 30058 ft | 543 kts | 110° |
| 2026-05-08 03:06 | 38.03023 | -63.86269 | 30066 ft | 542 kts | 110° |
| 2026-05-08 03:07 | 38.00766 | -63.77140 | 30065 ft | 542 kts | 110° |
| 2026-05-08 03:07 | 37.98501 | -63.68013 | 30064 ft | 541 kts | 110° |
| 2026-05-08 03:08 | 37.96235 | -63.58917 | 30081 ft | 540 kts | 110° |
| 2026-05-08 03:08 | 37.93963 | -63.49832 | 30073 ft | 540 kts | 110° |
| 2026-05-08 03:09 | 37.91686 | -63.40763 | 30086 ft | 539 kts | 110° |
| 2026-05-08 03:09 | 37.89405 | -63.31706 | 30077 ft | 538 kts | 110° |
| 2026-05-08 03:10 | 37.87137 | -63.22733 | 30094 ft | 538 kts | 110° |
| 2026-05-08 03:10 | 37.84848 | -63.13710 | 30093 ft | 537 kts | 110° |
| 2026-05-08 03:11 | 37.82556 | -63.04710 | 30099 ft | 537 kts | 110° |
| 2026-05-08 03:11 | 37.80259 | -62.95722 | 30098 ft | 536 kts | 110° |
| 2026-05-08 03:12 | 37.77957 | -62.86748 | 30109 ft | 535 kts | 110° |
| 2026-05-08 03:12 | 37.75650 | -62.77786 | 30110 ft | 535 kts | 110° |
| 2026-05-08 03:13 | 37.73338 | -62.68839 | 30112 ft | 535 kts | 111° |
| 2026-05-08 03:13 | 37.71020 | -62.59899 | 30113 ft | 535 kts | 111° |
| 2026-05-08 03:14 | 37.68692 | -62.50949 | 30118 ft | 535 kts | 111° |
| 2026-05-08 03:14 | 37.66360 | -62.42019 | 30123 ft | 535 kts | 111° |
| 2026-05-08 03:15 | 37.64020 | -62.33090 | 30130 ft | 535 kts | 111° |
| 2026-05-08 03:15 | 37.61671 | -62.24160 | 30133 ft | 536 kts | 111° |
| 2026-05-08 03:16 | 37.59315 | -62.15233 | 30132 ft | 536 kts | 111° |
| 2026-05-08 03:16 | 37.56953 | -62.06313 | 30143 ft | 535 kts | 112° |
| 2026-05-08 03:17 | 37.54586 | -61.97405 | 30143 ft | 535 kts | 112° |
| 2026-05-08 03:17 | 37.52213 | -61.88504 | 30148 ft | 535 kts | 112° |
| 2026-05-08 03:18 | 37.49837 | -61.79627 | 30148 ft | 534 kts | 112° |
| 2026-05-08 03:18 | 37.47461 | -61.70773 | 30152 ft | 532 kts | 112° |
| 2026-05-08 03:19 | 37.45080 | -61.61935 | 30161 ft | 531 kts | 112° |
| 2026-05-08 03:19 | 37.42698 | -61.53124 | 30160 ft | 530 kts | 112° |
| 2026-05-08 03:20 | 37.40313 | -61.44331 | 30165 ft | 529 kts | 112° |
| 2026-05-08 03:20 | 37.37927 | -61.35564 | 30167 ft | 529 kts | 112° |
| 2026-05-08 03:21 | 37.35540 | -61.26819 | 30170 ft | 528 kts | 112° |
| 2026-05-08 03:21 | 37.33148 | -61.18090 | 30172 ft | 527 kts | 112° |
| 2026-05-08 03:22 | 37.30749 | -61.09362 | 30172 ft | 527 kts | 112° |
| 2026-05-08 03:22 | 37.28347 | -61.00653 | 30177 ft | 527 kts | 112° |
| 2026-05-08 03:23 | 37.25941 | -60.91957 | 30176 ft | 526 kts | 112° |
| 2026-05-08 03:23 | 37.23546 | -60.83330 | 30178 ft | 526 kts | 112° |
| 2026-05-08 03:24 | 37.21128 | -60.74651 | 30179 ft | 526 kts | 112° |
| 2026-05-08 03:24 | 37.18705 | -60.65976 | 30182 ft | 526 kts | 112° |
| 2026-05-08 03:25 | 37.16279 | -60.57323 | 30180 ft | 526 kts | 112° |
| 2026-05-08 03:25 | 37.13843 | -60.48662 | 30183 ft | 526 kts | 112° |
| 2026-05-08 03:26 | 37.11399 | -60.39999 | 30184 ft | 526 kts | 112° |
| 2026-05-08 03:26 | 37.08949 | -60.31346 | 30188 ft | 527 kts | 112° |
| 2026-05-08 03:27 | 37.06492 | -60.22694 | 30195 ft | 527 kts | 112° |
| 2026-05-08 03:27 | 37.04028 | -60.14045 | 30200 ft | 526 kts | 112° |
| 2026-05-08 03:28 | 37.01559 | -60.05408 | 30199 ft | 526 kts | 112° |
| 2026-05-08 03:28 | 36.98955 | -59.96861 | 30200 ft | 524 kts | 115° |
| 2026-05-08 03:29 | 36.96095 | -59.88469 | 30200 ft | 524 kts | 115° |
| 2026-05-08 03:29 | 36.93216 | -59.80087 | 30208 ft | 523 kts | 115° |
| 2026-05-08 03:30 | 36.88900 | -59.67538 | 30208 ft | 523 kts | 115° |
| 2026-05-08 03:31 | 36.83133 | -59.50831 | 30205 ft | 523 kts | 115° |
| 2026-05-08 03:32 | 36.78787 | -59.38302 | 30213 ft | 524 kts | 115° |
| 2026-05-08 03:32 | 36.75888 | -59.29967 | 30217 ft | 524 kts | 115° |
| 2026-05-08 03:33 | 36.72972 | -59.21611 | 30221 ft | 524 kts | 115° |
| 2026-05-08 03:33 | 36.70074 | -59.13330 | 30215 ft | 524 kts | 115° |
| 2026-05-08 03:34 | 36.67149 | -59.04993 | 30224 ft | 525 kts | 115° |
| 2026-05-08 03:34 | 36.64218 | -58.96665 | 30221 ft | 525 kts | 115° |
| 2026-05-08 03:35 | 36.61277 | -58.88330 | 30214 ft | 525 kts | 115° |
| 2026-05-08 03:35 | 36.58334 | -58.80012 | 30222 ft | 525 kts | 115° |
| 2026-05-08 03:36 | 36.55380 | -58.71685 | 30222 ft | 525 kts | 116° |
| 2026-05-08 03:36 | 36.52423 | -58.63374 | 30226 ft | 525 kts | 116° |
| 2026-05-08 03:37 | 36.49461 | -58.55068 | 30231 ft | 525 kts | 116° |
| 2026-05-08 03:37 | 36.46497 | -58.46782 | 30231 ft | 524 kts | 116° |
| 2026-05-08 03:38 | 36.43525 | -58.38495 | 30233 ft | 524 kts | 116° |
| 2026-05-08 03:38 | 36.40548 | -58.30217 | 30232 ft | 524 kts | 116° |
| 2026-05-08 03:39 | 36.37570 | -58.21959 | 30236 ft | 524 kts | 116° |
| 2026-05-08 03:39 | 36.34583 | -58.13698 | 30235 ft | 524 kts | 116° |
| 2026-05-08 03:40 | 36.31592 | -58.05447 | 30235 ft | 524 kts | 116° |
| 2026-05-08 03:40 | 36.29102 | -57.98596 | 30234 ft | 523 kts | 116° |
| 2026-05-08 03:41 | 36.26103 | -57.90365 | 30237 ft | 523 kts | 116° |
| 2026-05-08 03:41 | 36.23100 | -57.82144 | 30238 ft | 523 kts | 116° |
| 2026-05-08 03:42 | 36.20093 | -57.73933 | 30239 ft | 522 kts | 116° |
| 2026-05-08 03:42 | 36.17083 | -57.65737 | 30240 ft | 522 kts | 116° |
| 2026-05-08 03:43 | 36.14075 | -57.57566 | 30243 ft | 522 kts | 116° |
| 2026-05-08 03:43 | 36.11075 | -57.49438 | 30245 ft | 521 kts | 116° |
| 2026-05-08 03:44 | 36.08057 | -57.41281 | 30244 ft | 521 kts | 115° |
| 2026-05-08 03:44 | 36.05035 | -57.33137 | 30244 ft | 520 kts | 115° |
| 2026-05-08 03:45 | 36.02009 | -57.25002 | 30245 ft | 520 kts | 115° |
| 2026-05-08 03:45 | 35.98983 | -57.16889 | 30249 ft | 520 kts | 115° |
| 2026-05-08 03:46 | 35.95948 | -57.08768 | 30250 ft | 520 kts | 115° |
| 2026-05-08 03:46 | 35.92908 | -57.00659 | 30249 ft | 520 kts | 115° |
| 2026-05-08 03:47 | 35.89859 | -56.92547 | 30249 ft | 520 kts | 115° |
| 2026-05-08 03:47 | 35.86806 | -56.84444 | 30249 ft | 520 kts | 115° |
| 2026-05-08 03:48 | 35.83748 | -56.76348 | 30248 ft | 520 kts | 115° |
| 2026-05-08 03:48 | 35.80684 | -56.68257 | 30245 ft | 520 kts | 115° |
| 2026-05-08 03:49 | 35.77619 | -56.60185 | 30241 ft | 519 kts | 115° |
| 2026-05-08 03:49 | 35.74549 | -56.52118 | 30246 ft | 519 kts | 115° |
| 2026-05-08 03:50 | 35.71479 | -56.44070 | 30247 ft | 519 kts | 115° |
| 2026-05-08 03:50 | 35.68403 | -56.36030 | 30250 ft | 519 kts | 115° |
| 2026-05-08 03:51 | 35.65341 | -56.28044 | 30250 ft | 519 kts | 115° |
| 2026-05-08 03:51 | 35.62254 | -56.20016 | 30249 ft | 519 kts | 115° |
| 2026-05-08 03:52 | 35.59156 | -56.11977 | 30248 ft | 520 kts | 115° |
| 2026-05-08 03:52 | 35.56050 | -56.03939 | 30241 ft | 521 kts | 115° |
| 2026-05-08 03:53 | 35.52934 | -55.95895 | 30243 ft | 521 kts | 115° |
| 2026-05-08 03:53 | 35.49818 | -55.87870 | 30247 ft | 520 kts | 115° |
| 2026-05-08 03:54 | 35.46699 | -55.79858 | 30245 ft | 519 kts | 115° |
| 2026-05-08 03:54 | 35.43582 | -55.71871 | 30245 ft | 518 kts | 114° |
| 2026-05-08 03:55 | 35.40466 | -55.63908 | 30244 ft | 517 kts | 114° |
| 2026-05-08 03:55 | 35.37347 | -55.55958 | 30242 ft | 517 kts | 114° |
| 2026-05-08 03:56 | 35.34228 | -55.48024 | 30239 ft | 516 kts | 114° |
| 2026-05-08 03:56 | 35.31105 | -55.40098 | 30242 ft | 516 kts | 114° |
| 2026-05-08 03:57 | 35.27977 | -55.32180 | 30239 ft | 516 kts | 114° |
| 2026-05-08 03:57 | 35.24846 | -55.24272 | 30241 ft | 516 kts | 114° |
| 2026-05-08 03:58 | 35.21727 | -55.16414 | 30241 ft | 516 kts | 114° |
| 2026-05-08 03:58 | 35.18557 | -55.08447 | 30238 ft | 516 kts | 114° |
| 2026-05-08 03:59 | 35.15411 | -55.00560 | 30241 ft | 516 kts | 114° |
| 2026-05-08 03:59 | 35.12281 | -54.92732 | 30245 ft | 515 kts | 113° |
| 2026-05-08 04:00 | 35.09110 | -54.84820 | 30242 ft | 514 kts | 113° |
| 2026-05-08 04:00 | 35.05982 | -54.77035 | 30242 ft | 513 kts | 113° |
| 2026-05-08 04:01 | 35.02832 | -54.69214 | 30239 ft | 511 kts | 113° |
| 2026-05-08 04:01 | 34.99688 | -54.61429 | 30244 ft | 510 kts | 112° |
| 2026-05-08 04:02 | 34.96554 | -54.53680 | 30246 ft | 509 kts | 112° |
| 2026-05-08 04:02 | 34.93417 | -54.45942 | 30245 ft | 508 kts | 112° |
| 2026-05-08 04:03 | 34.90288 | -54.38244 | 30242 ft | 506 kts | 112° |
| 2026-05-08 04:03 | 34.85588 | -54.26714 | 30247 ft | 505 kts | 112° |
| 2026-05-08 04:04 | 34.82459 | -54.19059 | 30244 ft | 504 kts | 111° |
| 2026-05-08 04:04 | 34.79333 | -54.11429 | 30242 ft | 503 kts | 111° |
| 2026-05-08 04:05 | 34.76213 | -54.03821 | 30247 ft | 502 kts | 111° |
| 2026-05-08 04:05 | 34.73092 | -53.96229 | 30258 ft | 500 kts | 111° |
| 2026-05-08 04:06 | 34.69972 | -53.88666 | 30248 ft | 500 kts | 111° |
| 2026-05-08 04:06 | 34.66849 | -53.81110 | 30247 ft | 499 kts | 111° |
| 2026-05-08 04:07 | 34.63725 | -53.73573 | 30254 ft | 498 kts | 111° |
| 2026-05-08 04:07 | 34.60603 | -53.66056 | 30254 ft | 498 kts | 111° |
| 2026-05-08 04:08 | 34.57475 | -53.58547 | 30258 ft | 497 kts | 110° |
| 2026-05-08 04:08 | 34.54353 | -53.51059 | 30257 ft | 496 kts | 110° |
| 2026-05-08 04:09 | 34.51228 | -53.43584 | 30261 ft | 496 kts | 110° |
| 2026-05-08 04:09 | 34.48107 | -53.36132 | 30256 ft | 494 kts | 110° |
| 2026-05-08 04:10 | 34.44990 | -53.28712 | 30257 ft | 493 kts | 110° |
| 2026-05-08 04:10 | 34.41875 | -53.21307 | 30259 ft | 492 kts | 110° |
| 2026-05-08 04:11 | 34.38787 | -53.13987 | 30262 ft | 490 kts | 110° |
| 2026-05-08 04:11 | 34.35684 | -53.06641 | 30268 ft | 489 kts | 110° |
| 2026-05-08 04:12 | 34.32583 | -52.99320 | 30266 ft | 487 kts | 110° |
| 2026-05-08 04:12 | 34.29492 | -52.92034 | 30270 ft | 486 kts | 110° |
| 2026-05-08 04:13 | 34.26401 | -52.84770 | 30267 ft | 485 kts | 111° |
| 2026-05-08 04:13 | 34.23312 | -52.77517 | 30268 ft | 485 kts | 111° |
| 2026-05-08 04:14 | 34.20215 | -52.70271 | 30273 ft | 484 kts | 111° |
| 2026-05-08 04:14 | 34.17123 | -52.63042 | 30278 ft | 484 kts | 111° |
| 2026-05-08 04:15 | 34.14018 | -52.55802 | 30273 ft | 485 kts | 111° |
| 2026-05-08 04:15 | 34.10907 | -52.48558 | 30277 ft | 486 kts | 112° |
| 2026-05-08 04:16 | 34.07782 | -52.41305 | 30284 ft | 487 kts | 112° |
| 2026-05-08 04:16 | 34.04650 | -52.34042 | 30277 ft | 488 kts | 113° |
| 2026-05-08 04:17 | 34.01502 | -52.26762 | 30273 ft | 489 kts | 114° |
| 2026-05-08 04:17 | 33.98343 | -52.19469 | 30280 ft | 491 kts | 114° |
| 2026-05-08 04:18 | 33.95170 | -52.12167 | 30285 ft | 492 kts | 115° |
| 2026-05-08 04:18 | 33.91988 | -52.04855 | 30280 ft | 492 kts | 116° |
| 2026-05-08 04:19 | 33.88799 | -51.97552 | 30288 ft | 493 kts | 116° |
| 2026-05-08 04:19 | 33.85606 | -51.90243 | 30297 ft | 494 kts | 117° |
| 2026-05-08 04:20 | 33.82403 | -51.82921 | 30287 ft | 493 kts | 117° |
| 2026-05-08 04:20 | 33.79208 | -51.75639 | 30287 ft | 491 kts | 118° |
| 2026-05-08 04:21 | 33.76021 | -51.68397 | 30289 ft | 489 kts | 119° |
| 2026-05-08 04:21 | 33.72840 | -51.61185 | 30290 ft | 487 kts | 120° |
| 2026-05-08 04:22 | 33.69664 | -51.54011 | 30291 ft | 485 kts | 120° |
| 2026-05-08 04:22 | 33.66519 | -51.46915 | 30293 ft | 483 kts | 120° |
| 2026-05-08 04:23 | 33.63337 | -51.39746 | 30294 ft | 482 kts | 120° |
| 2026-05-08 04:23 | 33.60194 | -51.32686 | 30334 ft | 481 kts | 119° |
| 2026-05-08 04:24 | 33.57041 | -51.25615 | 30308 ft | 480 kts | 120° |
| 2026-05-08 04:24 | 33.53895 | -51.18554 | 30301 ft | 479 kts | 120° |
| 2026-05-08 04:25 | 33.50740 | -51.11496 | 30301 ft | 479 kts | 120° |
| 2026-05-08 04:25 | 33.47587 | -51.04457 | 30299 ft | 479 kts | 120° |
| 2026-05-08 04:26 | 33.44419 | -50.97413 | 30303 ft | 479 kts | 120° |
| 2026-05-08 04:26 | 33.41250 | -50.90374 | 30304 ft | 480 kts | 120° |
| 2026-05-08 04:27 | 33.38076 | -50.83332 | 30302 ft | 480 kts | 120° |
| 2026-05-08 04:27 | 33.34895 | -50.76289 | 30304 ft | 480 kts | 121° |
| 2026-05-08 04:28 | 33.32251 | -50.70449 | 30305 ft | 480 kts | 121° |
| 2026-05-08 04:28 | 33.29061 | -50.63411 | 30306 ft | 480 kts | 121° |
| 2026-05-08 04:29 | 33.25875 | -50.56399 | 30307 ft | 480 kts | 121° |
| 2026-05-08 04:29 | 33.22681 | -50.49380 | 30310 ft | 480 kts | 121° |
| 2026-05-08 04:30 | 33.19483 | -50.42368 | 30311 ft | 480 kts | 121° |
| 2026-05-08 04:30 | 33.16285 | -50.35370 | 30312 ft | 480 kts | 121° |
| 2026-05-08 04:31 | 33.13082 | -50.28376 | 30312 ft | 480 kts | 121° |
| 2026-05-08 04:31 | 33.09873 | -50.21383 | 30318 ft | 480 kts | 121° |
| 2026-05-08 04:32 | 33.06658 | -50.14392 | 30311 ft | 480 kts | 121° |
| 2026-05-08 04:32 | 33.03445 | -50.07417 | 30313 ft | 480 kts | 121° |
| 2026-05-08 04:33 | 33.00125 | -50.00490 | 30312 ft | 479 kts | 124° |
| 2026-05-08 04:33 | 32.96334 | -49.93975 | 30317 ft | 478 kts | 128° |
| 2026-05-08 04:34 | 32.92393 | -49.87587 | 30321 ft | 478 kts | 129° |
| 2026-05-08 04:34 | 32.88444 | -49.81197 | 30320 ft | 478 kts | 129° |
| 2026-05-08 04:35 | 32.84495 | -49.74816 | 30328 ft | 478 kts | 129° |
| 2026-05-08 04:35 | 32.80566 | -49.68475 | 30321 ft | 478 kts | 129° |
| 2026-05-08 04:36 | 32.76612 | -49.62103 | 30326 ft | 479 kts | 129° |
| 2026-05-08 04:36 | 32.72656 | -49.55738 | 30325 ft | 479 kts | 129° |
| 2026-05-08 04:37 | 32.68688 | -49.49367 | 30325 ft | 479 kts | 129° |
| 2026-05-08 04:37 | 32.64712 | -49.42992 | 30333 ft | 480 kts | 129° |
| 2026-05-08 04:38 | 32.60730 | -49.36620 | 30341 ft | 480 kts | 129° |
| 2026-05-08 04:38 | 32.56743 | -49.30251 | 30333 ft | 480 kts | 129° |
| 2026-05-08 04:39 | 32.52758 | -49.23892 | 30326 ft | 480 kts | 129° |
| 2026-05-08 04:39 | 32.48768 | -49.17539 | 30347 ft | 480 kts | 129° |
| 2026-05-08 04:40 | 32.44778 | -49.11195 | 30327 ft | 480 kts | 130° |
| 2026-05-08 04:40 | 32.40787 | -49.04862 | 30344 ft | 479 kts | 130° |
| 2026-05-08 04:41 | 32.36792 | -48.98534 | 30342 ft | 479 kts | 130° |
| 2026-05-08 04:41 | 32.32794 | -48.92212 | 30339 ft | 479 kts | 130° |
| 2026-05-08 04:42 | 32.28795 | -48.85897 | 30342 ft | 479 kts | 130° |
| 2026-05-08 04:42 | 32.24778 | -48.79567 | 30342 ft | 480 kts | 130° |
| 2026-05-08 04:43 | 32.20742 | -48.73218 | 30347 ft | 481 kts | 130° |
| 2026-05-08 04:43 | 32.16717 | -48.66896 | 30347 ft | 481 kts | 130° |
| 2026-05-08 04:44 | 32.12685 | -48.60573 | 30346 ft | 482 kts | 130° |
| 2026-05-08 04:44 | 32.08671 | -48.54289 | 30350 ft | 482 kts | 130° |
| 2026-05-08 04:45 | 32.04604 | -48.47929 | 30346 ft | 482 kts | 130° |
| 2026-05-08 04:45 | 32.00582 | -48.41652 | 30346 ft | 482 kts | 130° |
| 2026-05-08 04:46 | 31.96538 | -48.35351 | 30349 ft | 482 kts | 130° |
| 2026-05-08 04:46 | 31.92486 | -48.29047 | 30349 ft | 482 kts | 131° |
| 2026-05-08 04:47 | 31.88436 | -48.22756 | 30352 ft | 482 kts | 131° |
| 2026-05-08 04:47 | 31.84387 | -48.16478 | 30351 ft | 481 kts | 131° |
| 2026-05-08 04:48 | 31.80333 | -48.10203 | 30352 ft | 481 kts | 131° |
| 2026-05-08 04:48 | 31.76284 | -48.03945 | 30351 ft | 480 kts | 131° |
| 2026-05-08 04:49 | 31.72231 | -47.97694 | 30352 ft | 480 kts | 131° |
| 2026-05-08 04:49 | 31.68182 | -47.91456 | 30357 ft | 479 kts | 131° |
| 2026-05-08 04:50 | 31.64132 | -47.85230 | 30355 ft | 479 kts | 131° |
| 2026-05-08 04:50 | 31.60078 | -47.79009 | 30353 ft | 480 kts | 131° |
| 2026-05-08 04:51 | 31.56015 | -47.72782 | 30359 ft | 480 kts | 131° |
| 2026-05-08 04:51 | 31.51950 | -47.66561 | 30354 ft | 480 kts | 131° |
| 2026-05-08 04:52 | 31.47881 | -47.60347 | 30360 ft | 480 kts | 131° |
| 2026-05-08 04:52 | 31.43810 | -47.54136 | 30361 ft | 480 kts | 131° |
| 2026-05-08 04:53 | 31.39728 | -47.47920 | 30362 ft | 481 kts | 131° |
| 2026-05-08 04:53 | 31.35674 | -47.41755 | 30359 ft | 481 kts | 131° |
| 2026-05-08 04:54 | 31.31583 | -47.35545 | 30360 ft | 482 kts | 131° |
| 2026-05-08 04:54 | 31.27484 | -47.29332 | 30361 ft | 482 kts | 131° |
| 2026-05-08 04:55 | 31.23372 | -47.23109 | 30361 ft | 483 kts | 131° |
| 2026-05-08 04:55 | 31.19257 | -47.16891 | 30365 ft | 484 kts | 131° |
| 2026-05-08 04:56 | 31.15130 | -47.10664 | 30366 ft | 484 kts | 131° |
| 2026-05-08 04:56 | 31.11001 | -47.04445 | 30369 ft | 485 kts | 131° |
| 2026-05-08 04:57 | 31.06856 | -46.98212 | 30368 ft | 486 kts | 131° |
| 2026-05-08 04:57 | 31.02710 | -46.91986 | 30369 ft | 486 kts | 131° |
| 2026-05-08 04:58 | 30.98551 | -46.85754 | 30368 ft | 487 kts | 131° |
| 2026-05-08 04:58 | 30.94385 | -46.79519 | 30369 ft | 487 kts | 131° |
| 2026-05-08 04:59 | 30.90211 | -46.73282 | 30371 ft | 488 kts | 131° |
| 2026-05-08 04:59 | 30.86029 | -46.67045 | 30368 ft | 489 kts | 131° |
| 2026-05-08 05:00 | 30.81836 | -46.60801 | 30370 ft | 489 kts | 132° |
| 2026-05-08 05:00 | 30.77636 | -46.54555 | 30369 ft | 490 kts | 132° |
| 2026-05-08 05:01 | 30.73426 | -46.48303 | 30370 ft | 491 kts | 132° |
| 2026-05-08 05:01 | 30.69238 | -46.42094 | 30377 ft | 491 kts | 132° |
| 2026-05-08 05:02 | 30.65011 | -46.35838 | 30365 ft | 492 kts | 132° |
| 2026-05-08 05:02 | 30.60773 | -46.29574 | 30377 ft | 492 kts | 132° |
| 2026-05-08 05:03 | 30.56533 | -46.23320 | 30376 ft | 493 kts | 133° |
| 2026-05-08 05:03 | 30.52288 | -46.17069 | 30377 ft | 493 kts | 133° |
| 2026-05-08 05:04 | 30.48041 | -46.10823 | 30377 ft | 493 kts | 133° |
| 2026-05-08 05:04 | 30.43792 | -46.04583 | 30372 ft | 493 kts | 133° |
| 2026-05-08 05:05 | 30.39536 | -45.98346 | 30377 ft | 493 kts | 133° |
| 2026-05-08 05:05 | 30.35272 | -45.92107 | 30375 ft | 493 kts | 133° |
| 2026-05-08 05:06 | 30.31014 | -45.85883 | 30378 ft | 493 kts | 133° |
| 2026-05-08 05:06 | 30.26737 | -45.79643 | 30379 ft | 494 kts | 133° |
| 2026-05-08 05:07 | 30.22468 | -45.73424 | 30377 ft | 494 kts | 133° |
| 2026-05-08 05:07 | 30.18188 | -45.67199 | 30380 ft | 494 kts | 133° |
| 2026-05-08 05:08 | 30.13906 | -45.60979 | 30379 ft | 494 kts | 133° |
| 2026-05-08 05:08 | 30.09623 | -45.54769 | 30383 ft | 494 kts | 133° |
| 2026-05-08 05:09 | 30.05333 | -45.48558 | 30383 ft | 494 kts | 133° |
| 2026-05-08 05:09 | 30.01036 | -45.42346 | 30381 ft | 494 kts | 133° |
| 2026-05-08 05:10 | 29.94585 | -45.33038 | 30378 ft | 495 kts | 133° |
| 2026-05-08 05:11 | 29.90276 | -45.26833 | 30377 ft | 495 kts | 133° |
| 2026-05-08 05:11 | 29.85969 | -45.20639 | 30385 ft | 495 kts | 133° |
| 2026-05-08 05:12 | 29.81651 | -45.14440 | 30384 ft | 495 kts | 133° |
| 2026-05-08 05:12 | 29.77333 | -45.08250 | 30380 ft | 496 kts | 133° |
| 2026-05-08 05:13 | 29.73033 | -45.02095 | 30385 ft | 496 kts | 133° |
| 2026-05-08 05:13 | 29.68675 | -44.95868 | 30384 ft | 496 kts | 133° |
| 2026-05-08 05:14 | 29.64370 | -44.89725 | 30381 ft | 496 kts | 133° |
| 2026-05-08 05:14 | 29.60004 | -44.83504 | 30381 ft | 497 kts | 133° |
| 2026-05-08 05:15 | 29.55655 | -44.77318 | 30380 ft | 497 kts | 133° |
| 2026-05-08 05:15 | 29.52040 | -44.72183 | 30379 ft | 497 kts | 133° |
| 2026-05-08 05:16 | 29.46983 | -44.65010 | 30387 ft | 497 kts | 133° |
| 2026-05-08 05:16 | 29.42628 | -44.58842 | 30383 ft | 497 kts | 133° |
| 2026-05-08 05:17 | 29.38973 | -44.53674 | 30381 ft | 497 kts | 133° |
| 2026-05-08 05:17 | 29.34640 | -44.47554 | 30381 ft | 497 kts | 133° |
| 2026-05-08 05:18 | 29.30279 | -44.41405 | 30382 ft | 497 kts | 133° |
| 2026-05-08 05:18 | 29.25912 | -44.35255 | 30383 ft | 497 kts | 133° |
| 2026-05-08 05:19 | 29.21540 | -44.29110 | 30384 ft | 497 kts | 133° |
| 2026-05-08 05:19 | 29.17166 | -44.22970 | 30383 ft | 497 kts | 133° |
| 2026-05-08 05:20 | 29.12776 | -44.16815 | 30380 ft | 497 kts | 133° |
| 2026-05-08 05:20 | 29.08403 | -44.10696 | 30386 ft | 497 kts | 133° |
| 2026-05-08 05:21 | 29.04010 | -44.04557 | 30382 ft | 497 kts | 133° |
| 2026-05-08 05:21 | 28.99623 | -43.98435 | 30384 ft | 497 kts | 134° |
| 2026-05-08 05:22 | 28.95239 | -43.92327 | 30382 ft | 497 kts | 134° |
| 2026-05-08 05:22 | 28.90842 | -43.86210 | 30385 ft | 497 kts | 134° |
| 2026-05-08 05:23 | 28.86481 | -43.80150 | 30381 ft | 497 kts | 134° |
| 2026-05-08 05:23 | 28.82080 | -43.74046 | 30377 ft | 497 kts | 134° |
| 2026-05-08 05:24 | 28.77679 | -43.67949 | 30376 ft | 497 kts | 134° |
| 2026-05-08 05:24 | 28.73258 | -43.61835 | 30382 ft | 498 kts | 134° |
| 2026-05-08 05:25 | 28.68855 | -43.55754 | 30378 ft | 498 kts | 134° |
| 2026-05-08 05:25 | 28.64440 | -43.49665 | 30377 ft | 498 kts | 134° |
| 2026-05-08 05:26 | 28.60026 | -43.43587 | 30380 ft | 498 kts | 134° |
| 2026-05-08 05:26 | 28.55606 | -43.37510 | 30379 ft | 498 kts | 134° |
| 2026-05-08 05:27 | 28.51191 | -43.31447 | 30377 ft | 498 kts | 134° |
| 2026-05-08 05:27 | 28.46762 | -43.25376 | 30375 ft | 498 kts | 134° |
| 2026-05-08 05:28 | 28.42333 | -43.19312 | 30389 ft | 498 kts | 134° |
| 2026-05-08 05:28 | 28.37901 | -43.13252 | 30374 ft | 498 kts | 134° |
| 2026-05-08 05:29 | 28.33465 | -43.07194 | 30375 ft | 498 kts | 134° |
| 2026-05-08 05:29 | 28.29026 | -43.01143 | 30384 ft | 498 kts | 134° |
| 2026-05-08 05:30 | 28.24585 | -42.95098 | 30377 ft | 498 kts | 134° |
| 2026-05-08 05:30 | 28.20172 | -42.89099 | 30377 ft | 499 kts | 134° |
| 2026-05-08 05:31 | 28.15716 | -42.83050 | 30375 ft | 499 kts | 135° |
| 2026-05-08 05:31 | 28.11265 | -42.77018 | 30376 ft | 499 kts | 135° |
| 2026-05-08 05:32 | 28.06808 | -42.70984 | 30375 ft | 499 kts | 135° |
| 2026-05-08 05:32 | 28.02344 | -42.64952 | 30375 ft | 499 kts | 135° |
| 2026-05-08 05:33 | 27.97881 | -42.58928 | 30373 ft | 499 kts | 135° |
| 2026-05-08 05:33 | 27.93412 | -42.52904 | 30372 ft | 499 kts | 135° |
| 2026-05-08 05:34 | 27.88937 | -42.46881 | 30373 ft | 500 kts | 135° |
| 2026-05-08 05:34 | 27.84459 | -42.40863 | 30371 ft | 500 kts | 135° |
| 2026-05-08 05:35 | 27.79979 | -42.34850 | 30368 ft | 500 kts | 135° |
| 2026-05-08 05:35 | 27.75494 | -42.28840 | 30370 ft | 500 kts | 135° |
| 2026-05-08 05:36 | 27.71006 | -42.22834 | 30375 ft | 500 kts | 135° |
| 2026-05-08 05:36 | 27.66515 | -42.16831 | 30372 ft | 500 kts | 135° |
| 2026-05-08 05:37 | 27.62019 | -42.10830 | 30375 ft | 500 kts | 135° |
| 2026-05-08 05:37 | 27.57523 | -42.04838 | 30368 ft | 500 kts | 135° |
| 2026-05-08 05:38 | 27.53023 | -41.98850 | 30370 ft | 500 kts | 135° |
| 2026-05-08 05:38 | 27.48520 | -41.92865 | 30371 ft | 500 kts | 135° |
| 2026-05-08 05:39 | 27.44011 | -41.86881 | 30365 ft | 501 kts | 135° |
| 2026-05-08 05:39 | 27.39496 | -41.80898 | 30369 ft | 501 kts | 135° |
| 2026-05-08 05:40 | 27.34985 | -41.74928 | 30370 ft | 501 kts | 135° |
| 2026-05-08 05:40 | 27.30493 | -41.68991 | 30367 ft | 501 kts | 135° |
| 2026-05-08 05:41 | 27.25968 | -41.63019 | 30363 ft | 501 kts | 135° |
| 2026-05-08 05:41 | 27.21444 | -41.57056 | 30368 ft | 501 kts | 135° |
| 2026-05-08 05:42 | 27.16915 | -41.51095 | 30367 ft | 501 kts | 135° |
| 2026-05-08 05:42 | 27.12381 | -41.45134 | 30369 ft | 501 kts | 135° |
| 2026-05-08 05:43 | 27.07850 | -41.39186 | 30364 ft | 501 kts | 135° |
| 2026-05-08 05:43 | 27.03312 | -41.33237 | 30364 ft | 501 kts | 135° |
| 2026-05-08 05:44 | 26.98770 | -41.27291 | 30368 ft | 501 kts | 135° |
| 2026-05-08 05:44 | 26.94228 | -41.21353 | 30370 ft | 501 kts | 135° |
| 2026-05-08 05:45 | 26.89683 | -41.15419 | 30364 ft | 501 kts | 135° |
| 2026-05-08 05:45 | 26.85135 | -41.09490 | 30364 ft | 501 kts | 135° |
| 2026-05-08 05:46 | 26.80584 | -41.03564 | 30363 ft | 501 kts | 135° |
| 2026-05-08 05:46 | 26.76048 | -40.97666 | 30361 ft | 501 kts | 135° |
| 2026-05-08 05:47 | 26.71466 | -40.91715 | 30360 ft | 501 kts | 135° |
| 2026-05-08 05:47 | 26.66903 | -40.85798 | 30363 ft | 501 kts | 135° |
| 2026-05-08 05:48 | 26.62345 | -40.79896 | 30364 ft | 501 kts | 135° |
| 2026-05-08 05:48 | 26.57777 | -40.73988 | 30359 ft | 501 kts | 135° |
| 2026-05-08 05:49 | 26.53246 | -40.68136 | 30358 ft | 501 kts | 135° |
| 2026-05-08 05:49 | 26.48676 | -40.62242 | 30361 ft | 501 kts | 135° |
| 2026-05-08 05:50 | 26.44111 | -40.56361 | 30352 ft | 501 kts | 135° |
| 2026-05-08 05:50 | 26.39536 | -40.50476 | 30354 ft | 501 kts | 135° |
| 2026-05-08 05:51 | 26.34966 | -40.44604 | 30356 ft | 501 kts | 135° |
| 2026-05-08 05:51 | 26.30390 | -40.38734 | 30355 ft | 501 kts | 135° |
| 2026-05-08 05:52 | 26.25807 | -40.32862 | 30358 ft | 501 kts | 135° |
| 2026-05-08 05:52 | 26.21228 | -40.27004 | 30355 ft | 501 kts | 135° |
| 2026-05-08 05:53 | 26.16641 | -40.21143 | 30357 ft | 501 kts | 135° |
| 2026-05-08 05:53 | 26.12050 | -40.15285 | 30356 ft | 502 kts | 135° |
| 2026-05-08 05:54 | 26.07455 | -40.09432 | 30357 ft | 502 kts | 135° |
| 2026-05-08 05:54 | 26.02863 | -40.03579 | 30353 ft | 502 kts | 135° |
| 2026-05-08 05:55 | 25.98586 | -39.97389 | 30354 ft | 506 kts | 128° |
| 2026-05-08 05:55 | 25.94765 | -39.90787 | 30350 ft | 508 kts | 126° |
| 2026-05-08 05:56 | 25.90993 | -39.84145 | 30350 ft | 508 kts | 126° |
| 2026-05-08 05:56 | 25.87208 | -39.77505 | 30348 ft | 508 kts | 126° |
| 2026-05-08 05:57 | 25.83413 | -39.70868 | 30351 ft | 508 kts | 126° |
| 2026-05-08 05:57 | 25.79614 | -39.64238 | 30344 ft | 509 kts | 126° |
| 2026-05-08 05:58 | 25.75809 | -39.57608 | 30344 ft | 509 kts | 126° |
| 2026-05-08 05:58 | 25.71998 | -39.50978 | 30345 ft | 509 kts | 126° |
| 2026-05-08 05:59 | 25.68188 | -39.44357 | 30344 ft | 509 kts | 126° |
| 2026-05-08 05:59 | 25.64367 | -39.37730 | 30345 ft | 509 kts | 126° |
| 2026-05-08 06:00 | 25.60544 | -39.31107 | 30344 ft | 510 kts | 126° |
| 2026-05-08 06:00 | 25.56715 | -39.24483 | 30341 ft | 510 kts | 126° |
| 2026-05-08 06:01 | 25.52909 | -39.17908 | 30340 ft | 510 kts | 126° |
| 2026-05-08 06:01 | 25.49071 | -39.11286 | 30338 ft | 510 kts | 126° |
| 2026-05-08 06:02 | 25.45229 | -39.04669 | 30336 ft | 510 kts | 126° |
| 2026-05-08 06:02 | 25.41372 | -38.98033 | 30335 ft | 511 kts | 126° |
| 2026-05-08 06:03 | 25.37525 | -38.91424 | 30335 ft | 511 kts | 126° |
| 2026-05-08 06:03 | 25.33674 | -38.84818 | 30333 ft | 511 kts | 126° |
| 2026-05-08 06:04 | 25.29814 | -38.78205 | 30350 ft | 511 kts | 126° |
| 2026-05-08 06:04 | 25.25949 | -38.71594 | 30341 ft | 511 kts | 126° |
| 2026-05-08 06:05 | 25.22083 | -38.64991 | 30343 ft | 511 kts | 126° |
| 2026-05-08 06:05 | 25.18866 | -38.59504 | 30340 ft | 512 kts | 126° |
| 2026-05-08 06:06 | 25.14991 | -38.52901 | 30337 ft | 512 kts | 126° |
| 2026-05-08 06:06 | 25.11114 | -38.46304 | 30341 ft | 512 kts | 126° |
| 2026-05-08 06:07 | 25.07234 | -38.39711 | 30337 ft | 512 kts | 126° |
| 2026-05-08 06:07 | 25.03350 | -38.33122 | 30335 ft | 512 kts | 126° |
| 2026-05-08 06:08 | 24.99464 | -38.26537 | 30337 ft | 512 kts | 126° |
| 2026-05-08 06:08 | 24.95571 | -38.19949 | 30328 ft | 512 kts | 126° |
| 2026-05-08 06:09 | 24.91678 | -38.13371 | 30332 ft | 512 kts | 126° |
| 2026-05-08 06:09 | 24.87782 | -38.06797 | 30322 ft | 512 kts | 126° |
| 2026-05-08 06:10 | 24.83881 | -38.00222 | 30330 ft | 512 kts | 126° |
| 2026-05-08 06:10 | 24.79977 | -37.93653 | 30325 ft | 512 kts | 126° |
| 2026-05-08 06:11 | 24.76069 | -37.87085 | 30331 ft | 512 kts | 126° |
| 2026-05-08 06:11 | 24.72159 | -37.80523 | 30323 ft | 512 kts | 126° |
| 2026-05-08 06:12 | 24.68245 | -37.73962 | 30323 ft | 512 kts | 126° |
| 2026-05-08 06:12 | 24.64331 | -37.67412 | 30325 ft | 512 kts | 126° |
| 2026-05-08 06:13 | 24.60412 | -37.60860 | 30329 ft | 512 kts | 126° |
| 2026-05-08 06:13 | 24.56519 | -37.54363 | 30327 ft | 512 kts | 126° |
| 2026-05-08 06:14 | 24.52601 | -37.47831 | 30323 ft | 512 kts | 126° |
| 2026-05-08 06:14 | 24.48674 | -37.41294 | 30322 ft | 512 kts | 126° |
| 2026-05-08 06:15 | 24.44749 | -37.34768 | 30320 ft | 512 kts | 126° |
| 2026-05-08 06:15 | 24.40824 | -37.28252 | 30324 ft | 511 kts | 126° |
| 2026-05-08 06:16 | 24.36897 | -37.21740 | 30323 ft | 511 kts | 126° |
| 2026-05-08 06:16 | 24.32966 | -37.15231 | 30323 ft | 511 kts | 126° |
| 2026-05-08 06:17 | 24.27069 | -37.05482 | 30319 ft | 511 kts | 126° |
| 2026-05-08 06:17 | 24.23136 | -36.98992 | 30323 ft | 510 kts | 126° |
| 2026-05-08 06:18 | 24.19204 | -36.92511 | 30314 ft | 510 kts | 126° |
| 2026-05-08 06:18 | 24.15268 | -36.86032 | 30316 ft | 510 kts | 126° |
| 2026-05-08 06:19 | 24.11329 | -36.79557 | 30317 ft | 510 kts | 126° |
| 2026-05-08 06:19 | 24.07419 | -36.73137 | 30315 ft | 509 kts | 126° |
| 2026-05-08 06:20 | 24.03482 | -36.66683 | 30309 ft | 509 kts | 126° |
| 2026-05-08 06:20 | 23.99536 | -36.60222 | 30312 ft | 509 kts | 126° |
| 2026-05-08 06:21 | 23.95594 | -36.53776 | 30319 ft | 509 kts | 126° |
| 2026-05-08 06:21 | 23.91654 | -36.47341 | 30307 ft | 508 kts | 126° |
| 2026-05-08 06:22 | 23.87720 | -36.40924 | 30311 ft | 508 kts | 126° |
| 2026-05-08 06:22 | 23.83777 | -36.34499 | 30307 ft | 508 kts | 126° |
| 2026-05-08 06:23 | 23.79840 | -36.28093 | 30313 ft | 508 kts | 126° |
| 2026-05-08 06:23 | 23.75896 | -36.21685 | 30310 ft | 507 kts | 126° |
| 2026-05-08 06:24 | 23.71955 | -36.15289 | 30310 ft | 507 kts | 126° |
| 2026-05-08 06:24 | 23.68010 | -36.08896 | 30311 ft | 507 kts | 126° |
| 2026-05-08 06:25 | 23.64066 | -36.02511 | 30312 ft | 507 kts | 126° |
| 2026-05-08 06:25 | 23.60119 | -35.96130 | 30305 ft | 507 kts | 126° |
| 2026-05-08 06:26 | 23.56170 | -35.89755 | 30308 ft | 507 kts | 126° |
| 2026-05-08 06:26 | 23.52221 | -35.83388 | 30311 ft | 507 kts | 126° |
| 2026-05-08 06:27 | 23.48265 | -35.77017 | 30311 ft | 506 kts | 126° |
| 2026-05-08 06:28 | 23.40224 | -35.64090 | 30307 ft | 506 kts | 126° |
| 2026-05-08 06:28 | 23.36399 | -35.57955 | 30417 ft | 512 kts | 126° |
| 2026-05-08 06:29 | 23.34398 | -35.54747 | 30701 ft | 512 kts | 126° |
| 2026-05-08 06:29 | 23.32396 | -35.51538 | 31053 ft | 511 kts | 126° |
| 2026-05-08 06:29 | 23.30401 | -35.48343 | 31406 ft | 510 kts | 127° |
| 2026-05-08 06:29 | 23.28405 | -35.45148 | 31703 ft | 509 kts | 127° |
| 2026-05-08 06:30 | 23.26410 | -35.41958 | 32005 ft | 510 kts | 127° |
| 2026-05-08 06:30 | 23.24401 | -35.38749 | 32300 ft | 509 kts | 127° |
| 2026-05-08 06:30 | 23.22407 | -35.35565 | 32616 ft | 509 kts | 127° |
| 2026-05-08 06:30 | 23.20410 | -35.32377 | 32911 ft | 509 kts | 127° |
| 2026-05-08 06:31 | 23.18415 | -35.29198 | 33204 ft | 509 kts | 127° |
| 2026-05-08 06:31 | 23.16420 | -35.26018 | 33487 ft | 509 kts | 127° |
| 2026-05-08 06:31 | 23.14424 | -35.22839 | 33769 ft | 509 kts | 127° |
| 2026-05-08 06:31 | 23.12427 | -35.19661 | 33996 ft | 509 kts | 127° |
| 2026-05-08 06:32 | 23.08430 | -35.13311 | 34001 ft | 509 kts | 127° |
| 2026-05-08 06:32 | 23.04431 | -35.06966 | 34002 ft | 509 kts | 127° |
| 2026-05-08 06:33 | 23.00510 | -35.00550 | 34001 ft | 510 kts | 123° |
| 2026-05-08 06:33 | 22.97122 | -34.93762 | 34006 ft | 512 kts | 119° |
| 2026-05-08 06:34 | 22.93933 | -34.86844 | 34004 ft | 512 kts | 119° |
| 2026-05-08 06:34 | 22.90739 | -34.79928 | 34002 ft | 512 kts | 119° |
| 2026-05-08 06:35 | 22.87536 | -34.73025 | 33999 ft | 512 kts | 119° |
| 2026-05-08 06:35 | 22.84325 | -34.66122 | 33999 ft | 512 kts | 119° |
| 2026-05-08 06:36 | 22.81111 | -34.59224 | 33998 ft | 512 kts | 119° |
| 2026-05-08 06:36 | 22.77895 | -34.52334 | 33997 ft | 512 kts | 119° |
| 2026-05-08 06:37 | 22.74669 | -34.45432 | 33995 ft | 512 kts | 119° |
| 2026-05-08 06:37 | 22.71466 | -34.38587 | 33997 ft | 512 kts | 119° |
| 2026-05-08 06:38 | 22.68239 | -34.31702 | 33997 ft | 512 kts | 119° |
| 2026-05-08 06:38 | 22.65008 | -34.24815 | 33993 ft | 512 kts | 119° |
| 2026-05-08 06:39 | 22.61771 | -34.17929 | 33996 ft | 512 kts | 119° |
| 2026-05-08 06:39 | 22.58535 | -34.11052 | 33996 ft | 512 kts | 119° |
| 2026-05-08 06:40 | 22.55293 | -34.04172 | 33996 ft | 512 kts | 119° |
| 2026-05-08 06:40 | 22.52051 | -33.97300 | 33991 ft | 512 kts | 119° |
| 2026-05-08 06:41 | 22.48802 | -33.90425 | 33990 ft | 512 kts | 119° |
| 2026-05-08 06:41 | 22.45552 | -33.83557 | 33994 ft | 513 kts | 119° |
| 2026-05-08 06:42 | 22.42299 | -33.76690 | 33997 ft | 512 kts | 119° |
| 2026-05-08 06:42 | 22.39042 | -33.69825 | 33991 ft | 512 kts | 119° |
| 2026-05-08 06:43 | 22.35781 | -33.62964 | 33995 ft | 513 kts | 119° |
| 2026-05-08 06:43 | 22.33069 | -33.57261 | 33992 ft | 513 kts | 119° |
| 2026-05-08 06:44 | 22.29805 | -33.50408 | 33995 ft | 513 kts | 119° |
| 2026-05-08 06:44 | 22.26536 | -33.43554 | 33995 ft | 513 kts | 119° |
| 2026-05-08 06:45 | 22.23264 | -33.36703 | 33994 ft | 513 kts | 119° |
| 2026-05-08 06:45 | 22.19992 | -33.29859 | 33992 ft | 513 kts | 119° |
| 2026-05-08 06:46 | 22.16712 | -33.23012 | 33994 ft | 513 kts | 119° |
| 2026-05-08 06:46 | 22.13433 | -33.16173 | 33993 ft | 513 kts | 119° |
| 2026-05-08 06:47 | 22.10153 | -33.09342 | 33992 ft | 512 kts | 120° |
| 2026-05-08 06:47 | 22.06867 | -33.02508 | 33993 ft | 512 kts | 119° |
| 2026-05-08 06:48 | 22.03577 | -32.95675 | 33993 ft | 513 kts | 119° |
| 2026-05-08 06:48 | 22.00288 | -32.88851 | 33993 ft | 512 kts | 120° |
| 2026-05-08 06:49 | 21.96997 | -32.82033 | 33999 ft | 512 kts | 119° |
| 2026-05-08 06:49 | 21.93725 | -32.75261 | 33991 ft | 512 kts | 119° |
| 2026-05-08 06:50 | 21.90430 | -32.68453 | 33988 ft | 512 kts | 120° |
| 2026-05-08 06:50 | 21.87131 | -32.61645 | 33990 ft | 512 kts | 119° |
| 2026-05-08 06:51 | 21.83827 | -32.54836 | 33996 ft | 512 kts | 120° |
| 2026-05-08 06:51 | 21.80526 | -32.48040 | 33989 ft | 512 kts | 120° |
| 2026-05-08 06:52 | 21.77220 | -32.41246 | 33993 ft | 512 kts | 120° |
| 2026-05-08 06:52 | 21.73912 | -32.34454 | 33993 ft | 512 kts | 120° |
| 2026-05-08 06:53 | 21.70602 | -32.27669 | 33994 ft | 512 kts | 120° |
| 2026-05-08 06:53 | 21.67289 | -32.20886 | 33991 ft | 512 kts | 120° |
| 2026-05-08 06:54 | 21.63974 | -32.14106 | 33992 ft | 512 kts | 120° |
| 2026-05-08 06:54 | 21.60654 | -32.07328 | 33992 ft | 512 kts | 120° |
| 2026-05-08 06:55 | 21.57337 | -32.00560 | 33989 ft | 512 kts | 120° |
| 2026-05-08 06:55 | 21.54025 | -31.93816 | 33992 ft | 512 kts | 120° |
| 2026-05-08 06:56 | 21.50697 | -31.87043 | 33989 ft | 512 kts | 120° |
| 2026-05-08 06:56 | 21.47370 | -31.80284 | 33990 ft | 511 kts | 120° |
| 2026-05-08 06:57 | 21.44040 | -31.73529 | 33989 ft | 511 kts | 120° |
| 2026-05-08 06:57 | 21.40710 | -31.66780 | 33992 ft | 511 kts | 120° |
| 2026-05-08 06:58 | 21.37374 | -31.60027 | 33990 ft | 511 kts | 120° |
| 2026-05-08 06:58 | 21.34037 | -31.53281 | 33992 ft | 511 kts | 120° |
| 2026-05-08 06:59 | 21.30698 | -31.46541 | 33993 ft | 511 kts | 120° |
| 2026-05-08 06:59 | 21.27360 | -31.39809 | 33990 ft | 511 kts | 120° |
| 2026-05-08 07:00 | 21.24016 | -31.33076 | 33992 ft | 511 kts | 120° |
| 2026-05-08 07:00 | 21.20672 | -31.26350 | 33990 ft | 511 kts | 120° |
| 2026-05-08 07:01 | 21.17325 | -31.19628 | 33991 ft | 511 kts | 120° |
| 2026-05-08 07:01 | 21.13974 | -31.12907 | 33987 ft | 511 kts | 120° |
| 2026-05-08 07:02 | 21.10625 | -31.06198 | 33985 ft | 510 kts | 120° |
| 2026-05-08 07:02 | 21.07268 | -30.99482 | 33986 ft | 510 kts | 120° |
| 2026-05-08 07:03 | 21.03912 | -30.92779 | 33988 ft | 510 kts | 120° |
| 2026-05-08 07:03 | 21.00550 | -30.86076 | 33986 ft | 510 kts | 120° |
| 2026-05-08 07:04 | 20.97182 | -30.79385 | 33983 ft | 510 kts | 121° |
| 2026-05-08 07:04 | 20.93453 | -30.72988 | 33986 ft | 509 kts | 126° |
| 2026-05-08 07:05 | 20.89422 | -30.66687 | 33986 ft | 509 kts | 126° |
| 2026-05-08 07:05 | 20.85405 | -30.60432 | 33988 ft | 509 kts | 126° |
| 2026-05-08 07:06 | 20.81393 | -30.54183 | 33984 ft | 509 kts | 126° |
| 2026-05-08 07:06 | 20.77377 | -30.47928 | 33983 ft | 509 kts | 126° |
| 2026-05-08 07:07 | 20.73392 | -30.41725 | 33983 ft | 510 kts | 126° |
| 2026-05-08 07:07 | 20.69347 | -30.35437 | 33983 ft | 510 kts | 126° |
| 2026-05-08 07:08 | 20.65353 | -30.29235 | 33981 ft | 510 kts | 126° |
| 2026-05-08 07:08 | 20.61325 | -30.22986 | 33983 ft | 510 kts | 126° |
| 2026-05-08 07:09 | 20.57302 | -30.16752 | 33982 ft | 510 kts | 126° |
| 2026-05-08 07:09 | 20.53267 | -30.10506 | 33985 ft | 510 kts | 126° |
| 2026-05-08 07:10 | 20.49239 | -30.04277 | 33983 ft | 510 kts | 126° |
| 2026-05-08 07:10 | 20.45201 | -29.98041 | 33980 ft | 510 kts | 126° |
| 2026-05-08 07:11 | 20.41161 | -29.91807 | 33983 ft | 510 kts | 126° |
| 2026-05-08 07:11 | 20.37119 | -29.85576 | 33978 ft | 510 kts | 126° |
| 2026-05-08 07:12 | 20.33075 | -29.79351 | 33978 ft | 510 kts | 126° |
| 2026-05-08 07:12 | 20.29018 | -29.73111 | 33979 ft | 510 kts | 126° |
| 2026-05-08 07:13 | 20.24971 | -29.66894 | 33983 ft | 510 kts | 126° |
| 2026-05-08 07:13 | 20.20921 | -29.60678 | 33981 ft | 510 kts | 126° |
| 2026-05-08 07:14 | 20.16867 | -29.54463 | 33979 ft | 510 kts | 126° |
| 2026-05-08 07:14 | 20.12813 | -29.48254 | 33980 ft | 511 kts | 126° |
| 2026-05-08 07:15 | 20.08751 | -29.42040 | 33976 ft | 511 kts | 126° |
| 2026-05-08 07:15 | 20.04692 | -29.35837 | 33977 ft | 511 kts | 126° |
| 2026-05-08 07:16 | 20.00627 | -29.29632 | 33976 ft | 510 kts | 126° |
| 2026-05-08 07:16 | 19.96563 | -29.23434 | 33980 ft | 510 kts | 126° |
| 2026-05-08 07:17 | 19.92521 | -29.17277 | 33977 ft | 511 kts | 126° |
| 2026-05-08 07:17 | 19.88450 | -29.11081 | 33977 ft | 511 kts | 126° |
| 2026-05-08 07:18 | 19.84385 | -29.04902 | 33976 ft | 511 kts | 126° |
| 2026-05-08 07:18 | 19.80310 | -28.98711 | 33977 ft | 510 kts | 126° |
| 2026-05-08 07:19 | 19.76235 | -28.92529 | 33976 ft | 510 kts | 126° |
| 2026-05-08 07:19 | 19.72159 | -28.86350 | 33979 ft | 510 kts | 126° |
| 2026-05-08 07:20 | 19.68081 | -28.80176 | 33973 ft | 510 kts | 126° |
| 2026-05-08 07:20 | 19.64002 | -28.74007 | 33972 ft | 510 kts | 126° |
| 2026-05-08 07:21 | 19.59924 | -28.67845 | 33971 ft | 510 kts | 126° |
| 2026-05-08 07:21 | 19.55839 | -28.61680 | 33968 ft | 510 kts | 126° |
| 2026-05-08 07:22 | 19.51758 | -28.55527 | 33972 ft | 509 kts | 126° |
| 2026-05-08 07:22 | 19.47682 | -28.49387 | 33970 ft | 509 kts | 126° |
| 2026-05-08 07:23 | 19.43599 | -28.43242 | 33971 ft | 509 kts | 126° |
| 2026-05-08 07:23 | 19.39510 | -28.37096 | 33973 ft | 509 kts | 126° |
| 2026-05-08 07:24 | 19.35426 | -28.30963 | 33971 ft | 509 kts | 126° |
| 2026-05-08 07:24 | 19.31342 | -28.24836 | 33973 ft | 509 kts | 126° |
| 2026-05-08 07:25 | 19.27254 | -28.18709 | 33972 ft | 509 kts | 126° |
| 2026-05-08 07:26 | 19.21125 | -28.09534 | 33972 ft | 508 kts | 126° |
| 2026-05-08 07:26 | 19.17037 | -28.03422 | 33973 ft | 508 kts | 126° |
| 2026-05-08 07:27 | 19.12951 | -27.97320 | 33971 ft | 508 kts | 126° |
| 2026-05-08 07:27 | 19.08861 | -27.91217 | 33970 ft | 508 kts | 126° |
| 2026-05-08 07:28 | 19.04770 | -27.85118 | 33970 ft | 508 kts | 125° |
| 2026-05-08 07:28 | 19.00677 | -27.79024 | 33969 ft | 508 kts | 125° |
| 2026-05-08 07:29 | 18.96615 | -27.72981 | 33969 ft | 508 kts | 125° |
| 2026-05-08 07:29 | 18.92488 | -27.66847 | 33982 ft | 508 kts | 125° |
| 2026-05-08 07:30 | 18.88419 | -27.60806 | 33982 ft | 508 kts | 125° |
| 2026-05-08 07:30 | 18.84324 | -27.54731 | 33968 ft | 507 kts | 125° |
| 2026-05-08 07:31 | 18.80223 | -27.48653 | 33964 ft | 507 kts | 125° |
| 2026-05-08 07:31 | 18.76121 | -27.42581 | 33966 ft | 507 kts | 125° |
| 2026-05-08 07:32 | 18.72025 | -27.36522 | 33964 ft | 507 kts | 125° |
| 2026-05-08 07:32 | 18.68618 | -27.31488 | 33978 ft | 507 kts | 125° |
| 2026-05-08 07:33 | 18.64514 | -27.25429 | 33957 ft | 507 kts | 125° |
| 2026-05-08 07:33 | 18.60409 | -27.19374 | 33956 ft | 507 kts | 125° |
| 2026-05-08 07:34 | 18.56304 | -27.13325 | 33975 ft | 507 kts | 125° |
| 2026-05-08 07:34 | 18.52199 | -27.07281 | 33955 ft | 507 kts | 125° |
| 2026-05-08 07:35 | 18.48088 | -27.01233 | 33954 ft | 507 kts | 125° |
| 2026-05-08 07:35 | 18.43980 | -26.95197 | 33971 ft | 506 kts | 125° |
| 2026-05-08 07:36 | 18.39871 | -26.89165 | 33956 ft | 506 kts | 125° |
| 2026-05-08 07:36 | 18.35758 | -26.83133 | 33956 ft | 506 kts | 125° |
| 2026-05-08 07:37 | 18.31649 | -26.77112 | 33967 ft | 506 kts | 125° |
| 2026-05-08 07:37 | 18.27534 | -26.71088 | 33967 ft | 506 kts | 125° |
| 2026-05-08 07:38 | 18.23423 | -26.65075 | 33951 ft | 506 kts | 125° |
| 2026-05-08 07:38 | 18.19309 | -26.59065 | 33965 ft | 506 kts | 125° |
| 2026-05-08 07:39 | 18.15217 | -26.53092 | 33970 ft | 506 kts | 125° |
| 2026-05-08 07:39 | 18.11102 | -26.47090 | 33950 ft | 505 kts | 125° |
| 2026-05-08 07:40 | 18.06989 | -26.41098 | 33969 ft | 505 kts | 125° |
| 2026-05-08 07:40 | 18.02866 | -26.35096 | 33970 ft | 505 kts | 125° |
| 2026-05-08 07:41 | 17.98747 | -26.29107 | 33948 ft | 505 kts | 125° |
| 2026-05-08 07:41 | 17.94627 | -26.23123 | 33962 ft | 505 kts | 125° |
| 2026-05-08 07:42 | 17.90509 | -26.17149 | 33961 ft | 505 kts | 125° |
| 2026-05-08 07:42 | 17.86384 | -26.11172 | 33946 ft | 505 kts | 125° |
| 2026-05-08 07:43 | 17.82267 | -26.05202 | 33956 ft | 504 kts | 124° |
| 2026-05-08 07:43 | 17.78510 | -25.98973 | 33964 ft | 504 kts | 118° |
| 2026-05-08 07:44 | 17.75177 | -25.92503 | 33960 ft | 504 kts | 117° |
| 2026-05-08 07:44 | 17.71858 | -25.86014 | 33956 ft | 504 kts | 117° |
| 2026-05-08 07:45 | 17.68532 | -25.79537 | 33957 ft | 504 kts | 117° |
| 2026-05-08 07:45 | 17.65204 | -25.73073 | 33961 ft | 504 kts | 117° |
| 2026-05-08 07:46 | 17.61866 | -25.66601 | 33962 ft | 504 kts | 117° |
| 2026-05-08 07:46 | 17.58529 | -25.60137 | 33957 ft | 504 kts | 117° |
| 2026-05-08 07:47 | 17.55211 | -25.53717 | 33959 ft | 504 kts | 118° |
| 2026-05-08 07:47 | 17.51869 | -25.47257 | 33956 ft | 504 kts | 118° |
| 2026-05-08 07:48 | 17.48501 | -25.40753 | 33949 ft | 504 kts | 118° |
| 2026-05-08 07:48 | 17.45177 | -25.34340 | 33958 ft | 504 kts | 118° |
| 2026-05-08 07:49 | 17.41831 | -25.27892 | 33959 ft | 504 kts | 118° |
| 2026-05-08 07:49 | 17.38479 | -25.21437 | 33955 ft | 504 kts | 118° |
| 2026-05-08 07:50 | 17.35131 | -25.14998 | 33959 ft | 504 kts | 118° |
| 2026-05-08 07:50 | 17.31776 | -25.08551 | 33959 ft | 504 kts | 118° |
| 2026-05-08 07:51 | 17.28420 | -25.02107 | 33953 ft | 504 kts | 118° |
| 2026-05-08 07:51 | 17.25060 | -24.95663 | 33955 ft | 504 kts | 118° |
| 2026-05-08 07:52 | 17.21701 | -24.89227 | 33957 ft | 503 kts | 118° |
| 2026-05-08 07:52 | 17.18336 | -24.82787 | 33955 ft | 504 kts | 118° |
| 2026-05-08 07:53 | 17.14970 | -24.76350 | 33954 ft | 504 kts | 118° |
| 2026-05-08 07:53 | 17.11603 | -24.69918 | 33955 ft | 504 kts | 118° |
| 2026-05-08 07:54 | 17.08236 | -24.63491 | 33950 ft | 504 kts | 118° |
| 2026-05-08 07:54 | 17.04866 | -24.57065 | 33950 ft | 503 kts | 118° |
| 2026-05-08 07:55 | 17.01493 | -24.50640 | 33946 ft | 503 kts | 118° |
| 2026-05-08 07:55 | 16.98115 | -24.44212 | 33949 ft | 503 kts | 118° |
| 2026-05-08 07:56 | 16.94761 | -24.37833 | 33944 ft | 503 kts | 118° |
| 2026-05-08 07:56 | 16.91388 | -24.31427 | 33945 ft | 503 kts | 118° |
| 2026-05-08 07:57 | 16.88009 | -24.25015 | 33946 ft | 503 kts | 118° |
| 2026-05-08 07:57 | 16.84630 | -24.18607 | 33946 ft | 503 kts | 118° |
| 2026-05-08 07:58 | 16.81251 | -24.12207 | 33947 ft | 503 kts | 118° |
| 2026-05-08 07:58 | 16.77873 | -24.05814 | 33953 ft | 503 kts | 118° |
| 2026-05-08 07:59 | 16.74488 | -23.99414 | 33948 ft | 503 kts | 118° |
| 2026-05-08 07:59 | 16.71104 | -23.93025 | 33953 ft | 503 kts | 118° |
| 2026-05-08 08:00 | 16.67720 | -23.86638 | 33947 ft | 502 kts | 118° |
| 2026-05-08 08:00 | 16.64333 | -23.80252 | 33944 ft | 502 kts | 118° |
| 2026-05-08 08:01 | 16.60947 | -23.73874 | 33942 ft | 502 kts | 118° |
| 2026-05-08 08:01 | 16.57557 | -23.67496 | 33940 ft | 502 kts | 118° |
| 2026-05-08 08:02 | 16.54164 | -23.61117 | 33936 ft | 502 kts | 118° |
| 2026-05-08 08:02 | 16.50770 | -23.54741 | 33932 ft | 502 kts | 118° |
| 2026-05-08 08:03 | 16.47372 | -23.48365 | 33927 ft | 503 kts | 119° |
| 2026-05-08 08:03 | 16.43998 | -23.42039 | 33928 ft | 503 kts | 119° |
| 2026-05-08 08:04 | 16.40592 | -23.35659 | 33925 ft | 503 kts | 119° |
| 2026-05-08 08:04 | 16.37186 | -23.29284 | 33920 ft | 503 kts | 119° |
| 2026-05-08 08:05 | 16.33776 | -23.22908 | 33930 ft | 504 kts | 119° |
| 2026-05-08 08:05 | 16.30362 | -23.16531 | 33937 ft | 504 kts | 120° |
| 2026-05-08 08:06 | 16.26946 | -23.10155 | 33928 ft | 504 kts | 120° |
| 2026-05-08 08:06 | 16.23523 | -23.03772 | 33927 ft | 504 kts | 120° |
| 2026-05-08 08:07 | 16.20082 | -22.97360 | 33924 ft | 504 kts | 120° |
| 2026-05-08 08:07 | 16.16656 | -22.90983 | 33928 ft | 505 kts | 120° |
| 2026-05-08 08:08 | 16.13222 | -22.84597 | 33930 ft | 505 kts | 120° |
| 2026-05-08 08:08 | 16.09777 | -22.78196 | 33928 ft | 505 kts | 120° |
| 2026-05-08 08:09 | 16.06338 | -22.71813 | 33926 ft | 505 kts | 121° |
| 2026-05-08 08:09 | 16.02899 | -22.65435 | 33932 ft | 506 kts | 121° |
| 2026-05-08 08:10 | 15.99451 | -22.59047 | 33931 ft | 506 kts | 121° |
| 2026-05-08 08:10 | 15.95999 | -22.52656 | 33934 ft | 507 kts | 121° |
| 2026-05-08 08:11 | 15.92564 | -22.46301 | 33928 ft | 507 kts | 121° |
| 2026-05-08 08:11 | 15.89104 | -22.39908 | 33933 ft | 508 kts | 122° |
| 2026-05-08 08:12 | 15.85635 | -22.33502 | 33932 ft | 508 kts | 122° |
| 2026-05-08 08:12 | 15.82164 | -22.27098 | 33934 ft | 508 kts | 122° |
| 2026-05-08 08:13 | 15.78687 | -22.20690 | 33930 ft | 509 kts | 122° |
| 2026-05-08 08:13 | 15.75204 | -22.14276 | 33928 ft | 509 kts | 122° |
| 2026-05-08 08:14 | 15.71718 | -22.07864 | 33925 ft | 510 kts | 123° |
| 2026-05-08 08:14 | 15.68229 | -22.01452 | 33931 ft | 510 kts | 123° |
| 2026-05-08 08:15 | 15.64734 | -21.95036 | 33930 ft | 510 kts | 123° |
| 2026-05-08 08:15 | 15.61239 | -21.88623 | 33925 ft | 510 kts | 123° |
| 2026-05-08 08:16 | 15.57737 | -21.82203 | 33930 ft | 511 kts | 123° |
| 2026-05-08 08:16 | 15.54235 | -21.75790 | 33926 ft | 511 kts | 123° |
| 2026-05-08 08:17 | 15.50751 | -21.69414 | 33923 ft | 511 kts | 124° |
| 2026-05-08 08:17 | 15.47216 | -21.62949 | 33924 ft | 511 kts | 124° |
| 2026-05-08 08:18 | 15.43699 | -21.56525 | 33923 ft | 512 kts | 124° |
| 2026-05-08 08:18 | 15.40206 | -21.50149 | 33923 ft | 512 kts | 124° |
| 2026-05-08 08:19 | 15.36659 | -21.43679 | 33924 ft | 512 kts | 124° |
| 2026-05-08 08:19 | 15.33132 | -21.37252 | 33924 ft | 512 kts | 124° |
| 2026-05-08 08:20 | 15.29602 | -21.30826 | 33916 ft | 513 kts | 124° |
| 2026-05-08 08:20 | 15.26093 | -21.24442 | 33919 ft | 513 kts | 124° |
| 2026-05-08 08:21 | 15.22551 | -21.18004 | 33921 ft | 513 kts | 125° |
| 2026-05-08 08:21 | 15.19012 | -21.11576 | 33920 ft | 514 kts | 125° |
| 2026-05-08 08:22 | 15.15467 | -21.05144 | 33919 ft | 514 kts | 125° |
| 2026-05-08 08:22 | 15.11915 | -20.98704 | 33915 ft | 514 kts | 125° |
| 2026-05-08 08:23 | 15.08938 | -20.93311 | 33914 ft | 515 kts | 125° |
| 2026-05-08 08:23 | 15.05380 | -20.86873 | 33928 ft | 515 kts | 126° |
| 2026-05-08 08:24 | 15.01842 | -20.80475 | 33908 ft | 515 kts | 126° |
| 2026-05-08 08:24 | 14.98272 | -20.74025 | 33906 ft | 516 kts | 126° |
| 2026-05-08 08:25 | 14.94702 | -20.67581 | 33919 ft | 516 kts | 126° |
| 2026-05-08 08:25 | 14.91109 | -20.61102 | 33918 ft | 517 kts | 126° |
| 2026-05-08 08:26 | 14.87526 | -20.54647 | 33917 ft | 517 kts | 126° |
| 2026-05-08 08:26 | 14.83940 | -20.48191 | 33914 ft | 518 kts | 126° |
| 2026-05-08 08:27 | 14.80349 | -20.41734 | 33911 ft | 518 kts | 126° |
| 2026-05-08 08:27 | 14.76751 | -20.35272 | 33910 ft | 518 kts | 126° |
| 2026-05-08 08:28 | 14.73150 | -20.28814 | 33907 ft | 518 kts | 126° |
| 2026-05-08 08:28 | 14.69492 | -20.22391 | 33907 ft | 516 kts | 129° |
| 2026-05-08 08:29 | 14.65355 | -20.16382 | 33908 ft | 511 kts | 134° |
| 2026-05-08 08:29 | 14.60990 | -20.10594 | 33904 ft | 510 kts | 134° |
| 2026-05-08 08:30 | 14.56619 | -20.04817 | 33906 ft | 510 kts | 134° |
| 2026-05-08 08:30 | 14.50067 | -19.96142 | 33904 ft | 510 kts | 134° |
| 2026-05-08 08:31 | 14.45706 | -19.90365 | 33904 ft | 510 kts | 134° |
| 2026-05-08 08:31 | 14.41339 | -19.84584 | 33900 ft | 510 kts | 134° |
| 2026-05-08 08:32 | 14.37010 | -19.78858 | 33898 ft | 509 kts | 134° |
| 2026-05-08 08:32 | 14.32652 | -19.73097 | 33896 ft | 508 kts | 134° |
| 2026-05-08 08:33 | 14.28297 | -19.67344 | 33904 ft | 508 kts | 134° |
| 2026-05-08 08:33 | 14.23950 | -19.61606 | 33902 ft | 507 kts | 134° |
| 2026-05-08 08:34 | 14.19606 | -19.55875 | 33895 ft | 506 kts | 134° |
| 2026-05-08 08:34 | 14.15268 | -19.50156 | 33898 ft | 506 kts | 134° |
| 2026-05-08 08:35 | 14.10931 | -19.44442 | 33896 ft | 505 kts | 134° |
| 2026-05-08 08:35 | 14.06605 | -19.38747 | 33897 ft | 504 kts | 134° |
| 2026-05-08 08:36 | 14.02289 | -19.33070 | 33896 ft | 503 kts | 134° |
| 2026-05-08 08:36 | 13.97975 | -19.27399 | 33897 ft | 502 kts | 134° |
| 2026-05-08 08:37 | 13.93671 | -19.21744 | 33896 ft | 501 kts | 134° |
| 2026-05-08 08:37 | 13.89377 | -19.16107 | 33894 ft | 500 kts | 134° |
| 2026-05-08 08:38 | 13.85083 | -19.10475 | 33893 ft | 499 kts | 133° |
| 2026-05-08 08:38 | 13.80790 | -19.04847 | 33894 ft | 499 kts | 133° |
| 2026-05-08 08:39 | 13.76495 | -18.99220 | 33894 ft | 498 kts | 133° |
| 2026-05-08 08:39 | 13.72212 | -18.93613 | 33891 ft | 498 kts | 133° |
| 2026-05-08 08:40 | 13.67930 | -18.88010 | 33893 ft | 497 kts | 133° |
| 2026-05-08 08:40 | 13.63653 | -18.82419 | 33890 ft | 497 kts | 133° |
| 2026-05-08 08:41 | 13.59375 | -18.76829 | 33892 ft | 497 kts | 133° |
| 2026-05-08 08:41 | 13.55127 | -18.71283 | 33889 ft | 497 kts | 133° |
| 2026-05-08 08:42 | 13.50846 | -18.65699 | 33890 ft | 497 kts | 133° |
| 2026-05-08 08:42 | 13.46565 | -18.60118 | 33890 ft | 496 kts | 133° |
| 2026-05-08 08:43 | 13.42285 | -18.54544 | 33893 ft | 496 kts | 133° |
| 2026-05-08 08:43 | 13.38007 | -18.48980 | 33890 ft | 496 kts | 133° |
| 2026-05-08 08:44 | 13.33721 | -18.43406 | 33893 ft | 496 kts | 133° |
| 2026-05-08 08:44 | 13.29431 | -18.37843 | 33891 ft | 496 kts | 133° |
| 2026-05-08 08:45 | 13.25128 | -18.32285 | 33891 ft | 496 kts | 133° |
| 2026-05-08 08:45 | 13.20830 | -18.26742 | 33893 ft | 496 kts | 133° |
| 2026-05-08 08:46 | 13.16528 | -18.21200 | 33894 ft | 496 kts | 133° |
| 2026-05-08 08:46 | 13.12227 | -18.15664 | 33893 ft | 496 kts | 133° |
| 2026-05-08 08:47 | 13.07921 | -18.10128 | 33896 ft | 495 kts | 133° |
| 2026-05-08 08:47 | 13.03620 | -18.04599 | 33890 ft | 495 kts | 133° |
| 2026-05-08 08:48 | 12.99097 | -17.99305 | 33892 ft | 491 kts | 139° |
| 2026-05-08 08:48 | 12.94133 | -17.94520 | 33894 ft | 488 kts | 143° |
| 2026-05-08 08:49 | 12.89092 | -17.89906 | 33893 ft | 488 kts | 143° |
| 2026-05-08 08:49 | 12.84022 | -17.85268 | 33895 ft | 488 kts | 143° |
| 2026-05-08 08:50 | 12.78958 | -17.80631 | 33893 ft | 488 kts | 142° |
| 2026-05-08 08:50 | 12.73894 | -17.75994 | 33892 ft | 488 kts | 142° |
| 2026-05-08 08:51 | 12.68821 | -17.71351 | 33892 ft | 488 kts | 142° |
| 2026-05-08 08:51 | 12.63756 | -17.66717 | 33892 ft | 488 kts | 142° |
| 2026-05-08 08:52 | 12.58683 | -17.62080 | 33891 ft | 488 kts | 142° |
| 2026-05-08 08:52 | 12.53611 | -17.57446 | 33893 ft | 489 kts | 142° |
| 2026-05-08 08:53 | 12.48533 | -17.52810 | 33892 ft | 489 kts | 142° |
| 2026-05-08 08:53 | 12.43455 | -17.48177 | 33890 ft | 489 kts | 142° |
| 2026-05-08 08:54 | 12.38367 | -17.43539 | 33889 ft | 489 kts | 142° |
| 2026-05-08 08:54 | 12.33277 | -17.38904 | 33890 ft | 490 kts | 142° |
| 2026-05-08 08:55 | 12.28179 | -17.34258 | 33890 ft | 490 kts | 142° |
| 2026-05-08 08:55 | 12.23091 | -17.29610 | 33893 ft | 491 kts | 142° |
| 2026-05-08 08:56 | 12.17996 | -17.24964 | 33893 ft | 491 kts | 142° |
| 2026-05-08 08:56 | 12.12924 | -17.20346 | 33895 ft | 491 kts | 142° |
| 2026-05-08 08:57 | 12.07782 | -17.15670 | 33894 ft | 491 kts | 142° |
| 2026-05-08 08:57 | 12.02702 | -17.11052 | 33889 ft | 491 kts | 142° |
| 2026-05-08 08:58 | 11.97589 | -17.06407 | 33890 ft | 492 kts | 142° |
| 2026-05-08 08:58 | 11.92473 | -17.01763 | 33893 ft | 492 kts | 141° |
| 2026-05-08 08:59 | 11.87358 | -16.97121 | 33891 ft | 492 kts | 141° |
| 2026-05-08 08:59 | 11.82244 | -16.92483 | 33889 ft | 491 kts | 141° |
| 2026-05-08 09:00 | 11.77129 | -16.87846 | 33891 ft | 491 kts | 141° |
| 2026-05-08 09:00 | 11.72020 | -16.83218 | 33888 ft | 491 kts | 141° |
| 2026-05-08 09:01 | 11.66914 | -16.78594 | 33888 ft | 490 kts | 141° |
| 2026-05-08 09:01 | 11.61807 | -16.73972 | 33889 ft | 490 kts | 141° |
| 2026-05-08 09:02 | 11.56705 | -16.69357 | 33890 ft | 490 kts | 141° |
| 2026-05-08 09:02 | 11.51602 | -16.64744 | 33888 ft | 490 kts | 141° |
| 2026-05-08 09:03 | 11.46506 | -16.60139 | 33886 ft | 489 kts | 141° |
| 2026-05-08 09:03 | 11.41407 | -16.55533 | 33878 ft | 489 kts | 141° |
| 2026-05-08 09:04 | 11.36307 | -16.50929 | 33887 ft | 489 kts | 141° |
| 2026-05-08 09:04 | 11.31211 | -16.46331 | 33882 ft | 489 kts | 141° |
| 2026-05-08 09:05 | 11.26118 | -16.41737 | 33888 ft | 488 kts | 141° |
| 2026-05-08 09:05 | 11.21031 | -16.37152 | 33889 ft | 488 kts | 141° |
| 2026-05-08 09:06 | 11.15942 | -16.32567 | 33883 ft | 488 kts | 141° |
| 2026-05-08 09:06 | 11.10862 | -16.27992 | 33891 ft | 487 kts | 141° |
| 2026-05-08 09:07 | 11.05785 | -16.23423 | 33875 ft | 487 kts | 141° |
| 2026-05-08 09:07 | 11.00748 | -16.18891 | 33887 ft | 486 kts | 141° |
| 2026-05-08 09:08 | 10.95680 | -16.14333 | 33881 ft | 485 kts | 141° |
| 2026-05-08 09:08 | 10.90618 | -16.09784 | 33876 ft | 485 kts | 141° |
| 2026-05-08 09:09 | 10.85563 | -16.05244 | 33885 ft | 484 kts | 140° |
| 2026-05-08 09:09 | 10.80513 | -16.00709 | 33884 ft | 483 kts | 140° |
| 2026-05-08 09:10 | 10.75458 | -15.96173 | 33881 ft | 483 kts | 140° |